<?xml version="1.0" encoding="UTF-8"?>
<gpx version="1.1" creator="2bulu-scraper" xmlns="http://www.topografix.com/GPX/1/1">
  <metadata><name>泸州纳溪区鼓楼山</name><desc>source: 2bulu.com trackId=79543168; exported 2026-09-01T14:33:00.046Z</desc>
    <bounds minlat="28.7366352" minlon="105.5664383" maxlat="28.7440233" maxlon="105.5905359"/>
    <link href="https://www.2bulu.com/track/t-NRxIKzQRdGTp%252FR2KBg5Tzw%253D%253D.htm"><text>2bulu 源页面</text></link>
  </metadata>
  <wpt lat="28.741075" lon="105.5664383"><ele>664</ele><name>
        
        
        </name></wpt>
  <wpt lat="28.741075" lon="105.5664383"><ele>664</ele><name>
        
        
        </name></wpt>
  <wpt lat="28.7412808" lon="105.5668736"><ele>649</ele><name>孔雀开屏
        
        
        </name></wpt>
  <wpt lat="28.7440233" lon="105.569425"><ele>654</ele><name>
        
        
        </name></wpt>
  <wpt lat="28.7440233" lon="105.569425"><ele>654</ele><name>
        
        
        </name></wpt>
  <wpt lat="28.74396" lon="105.5694733"><ele>657</ele><name>
        
        
        </name></wpt>
  <wpt lat="28.7426624" lon="105.5734113"><ele>676</ele><name>
        
        
        </name></wpt>
  <wpt lat="28.7422878" lon="105.573737"><ele>673</ele><name>
        
        
        </name></wpt>
  <wpt lat="28.7398935" lon="105.5747806"><ele>632</ele><name>
        
        
        </name></wpt>
  <wpt lat="28.738689" lon="105.5762494"><ele>636</ele><name>水池里，象不象乌龟石
        
        
        </name></wpt>
  <wpt lat="28.740286" lon="105.5781787"><ele>638</ele><name>
        
        
        </name></wpt>
  <wpt lat="28.7402225" lon="105.5826429"><ele>663</ele><name>
        
        
        </name></wpt>
  <wpt lat="28.7402456" lon="105.5829739"><ele>657</ele><name>
        
        
        </name></wpt>
  <wpt lat="28.7406662" lon="105.5861603"><ele>657</ele><name>
        
        
        </name></wpt>
  <wpt lat="28.7393426" lon="105.5881768"><ele>654</ele><name>
        
        
        </name></wpt>
  <wpt lat="28.7392145" lon="105.5884699"><ele>650</ele><name>
        
        
        </name></wpt>
  <wpt lat="28.7379889" lon="105.5902214"><ele>639</ele><name>
        
        
        </name></wpt>
  <wpt lat="28.7379039" lon="105.5904191"><ele>628</ele><name>
        
        
        </name></wpt>
  <wpt lat="28.7378758" lon="105.5905359"><ele>626</ele><name>
        
        
        </name></wpt>
  <wpt lat="28.7378856" lon="105.58926"><ele>653</ele><name>
        
        
        </name></wpt>
  <wpt lat="28.7396098" lon="105.5869169"><ele>656</ele><name>
        
        
        </name></wpt>
  <wpt lat="28.7380805" lon="105.5849928"><ele>658</ele><name>
        
        
        </name></wpt>
  <wpt lat="28.7380287" lon="105.5848153"><ele>650</ele><name>
        
        
        </name></wpt>
  <wpt lat="28.7373444" lon="105.5827624"><ele>674</ele><name>
        
        
        </name></wpt>
  <wpt lat="28.7366731" lon="105.5772441"><ele>659</ele><name>
        
        
        </name></wpt>
  <wpt lat="28.7405217" lon="105.5714723"><ele>660</ele><name>
        
        
        </name></wpt>
  <wpt lat="28.7407076" lon="105.5709811"><ele>660</ele><name>大香樟树
        
        
        </name></wpt>
  <wpt lat="28.7413586" lon="105.570227"><ele>672</ele><name>
        
        
        </name></wpt>
  <wpt lat="28.7409594" lon="105.569122"><ele>669</ele><name>
        
        
        </name></wpt>
  <wpt lat="28.7409594" lon="105.569122"><ele>669</ele><name>
        
        
        </name></wpt>
  <wpt lat="28.7410248" lon="105.5668704"><ele>650</ele><name>
        
        
        </name></wpt>
  <trk><name>泸州纳溪区鼓楼山</name>
      <trkseg>
        <trkpt lat="28.741075" lon="105.5664383"><ele>664</ele><time>2026-02-22T22:53:32.000Z</time></trkpt>
        <trkpt lat="28.7411155" lon="105.5665235"><ele>664</ele><time>2026-02-22T22:54:18.000Z</time></trkpt>
        <trkpt lat="28.7411427" lon="105.5666301"><ele>662.02</ele><time>2026-02-22T22:54:54.000Z</time></trkpt>
        <trkpt lat="28.7411706" lon="105.5667401"><ele>659.9</ele><time>2026-02-22T22:55:14.000Z</time></trkpt>
        <trkpt lat="28.7411005" lon="105.5667522"><ele>656.93</ele><time>2026-02-22T22:55:30.000Z</time></trkpt>
        <trkpt lat="28.7409885" lon="105.5667556"><ele>653.87</ele><time>2026-02-22T22:55:42.000Z</time></trkpt>
        <trkpt lat="28.7408856" lon="105.5667817"><ele>651.82</ele><time>2026-02-22T22:55:50.000Z</time></trkpt>
        <trkpt lat="28.7408" lon="105.5668339"><ele>650.35</ele><time>2026-02-22T22:56:00.000Z</time></trkpt>
        <trkpt lat="28.7408617" lon="105.5669317"><ele>648.91</ele><time>2026-02-22T22:58:22.000Z</time></trkpt>
        <trkpt lat="28.7407633" lon="105.5669133"><ele>648.73</ele><time>2026-02-22T22:59:10.000Z</time></trkpt>
        <trkpt lat="28.7407708" lon="105.5668231"><ele>650.44</ele><time>2026-02-22T22:59:18.000Z</time></trkpt>
        <trkpt lat="28.7407429" lon="105.566823"><ele>650.94</ele><time>2026-02-22T22:59:36.000Z</time></trkpt>
        <trkpt lat="28.7408167" lon="105.5667433"><ele>650.45</ele><time>2026-02-22T23:02:18.000Z</time></trkpt>
        <trkpt lat="28.740915" lon="105.5667317"><ele>649.61</ele><time>2026-02-22T23:02:28.000Z</time></trkpt>
        <trkpt lat="28.7410176" lon="105.5667144"><ele>648.14</ele><time>2026-02-22T23:02:36.000Z</time></trkpt>
        <trkpt lat="28.7411222" lon="105.5667411"><ele>646.23</ele><time>2026-02-22T23:02:46.000Z</time></trkpt>
        <trkpt lat="28.7412048" lon="105.5668066"><ele>645.57</ele><time>2026-02-22T23:02:58.000Z</time></trkpt>
        <trkpt lat="28.7412808" lon="105.5668736"><ele>646.14</ele><time>2026-02-22T23:03:08.000Z</time></trkpt>
        <trkpt lat="28.7412217" lon="105.5669733"><ele>647.29</ele><time>2026-02-22T23:04:08.000Z</time></trkpt>
        <trkpt lat="28.7412" lon="105.5670733"><ele>648.93</ele><time>2026-02-22T23:04:28.000Z</time></trkpt>
        <trkpt lat="28.7412418" lon="105.5671804"><ele>650.76</ele><time>2026-02-22T23:05:12.000Z</time></trkpt>
        <trkpt lat="28.7413133" lon="105.56728"><ele>653.36</ele><time>2026-02-22T23:06:20.000Z</time></trkpt>
        <trkpt lat="28.74135" lon="105.5673817"><ele>657.55</ele><time>2026-02-22T23:06:46.000Z</time></trkpt>
        <trkpt lat="28.7414078" lon="105.5674664"><ele>661.06</ele><time>2026-02-22T23:06:58.000Z</time></trkpt>
        <trkpt lat="28.7414655" lon="105.5675533"><ele>663.78</ele><time>2026-02-22T23:07:10.000Z</time></trkpt>
        <trkpt lat="28.7415572" lon="105.5675869"><ele>665.81</ele><time>2026-02-22T23:07:48.000Z</time></trkpt>
        <trkpt lat="28.741647" lon="105.5676339"><ele>667.18</ele><time>2026-02-22T23:08:00.000Z</time></trkpt>
        <trkpt lat="28.7417317" lon="105.5676787"><ele>667.97</ele><time>2026-02-22T23:08:16.000Z</time></trkpt>
        <trkpt lat="28.7418197" lon="105.5677236"><ele>668.32</ele><time>2026-02-22T23:08:30.000Z</time></trkpt>
        <trkpt lat="28.7418636" lon="105.5678117"><ele>668.36</ele><time>2026-02-22T23:09:14.000Z</time></trkpt>
        <trkpt lat="28.741911" lon="105.5679034"><ele>667.69</ele><time>2026-02-22T23:09:28.000Z</time></trkpt>
        <trkpt lat="28.741937" lon="105.5680055"><ele>667</ele><time>2026-02-22T23:09:42.000Z</time></trkpt>
        <trkpt lat="28.7419611" lon="105.5681113"><ele>667.22</ele><time>2026-02-22T23:09:58.000Z</time></trkpt>
        <trkpt lat="28.7420088" lon="105.5682084"><ele>668.33</ele><time>2026-02-22T23:10:12.000Z</time></trkpt>
        <trkpt lat="28.7420636" lon="105.5682989"><ele>669.86</ele><time>2026-02-22T23:10:30.000Z</time></trkpt>
        <trkpt lat="28.7421102" lon="105.5683895"><ele>672.12</ele><time>2026-02-22T23:10:50.000Z</time></trkpt>
        <trkpt lat="28.742148" lon="105.568483"><ele>673.96</ele><time>2026-02-22T23:11:06.000Z</time></trkpt>
        <trkpt lat="28.7422064" lon="105.5685614"><ele>676.26</ele><time>2026-02-22T23:11:22.000Z</time></trkpt>
        <trkpt lat="28.7422954" lon="105.5685592"><ele>678.43</ele><time>2026-02-22T23:11:38.000Z</time></trkpt>
        <trkpt lat="28.7423672" lon="105.568606"><ele>679.79</ele><time>2026-02-22T23:11:52.000Z</time></trkpt>
        <trkpt lat="28.7424318" lon="105.5686742"><ele>680.78</ele><time>2026-02-22T23:12:12.000Z</time></trkpt>
        <trkpt lat="28.7424885" lon="105.5687614"><ele>681.87</ele><time>2026-02-22T23:12:26.000Z</time></trkpt>
        <trkpt lat="28.7425302" lon="105.5688568"><ele>682.61</ele><time>2026-02-22T23:12:42.000Z</time></trkpt>
        <trkpt lat="28.7425669" lon="105.5689561"><ele>683.51</ele><time>2026-02-22T23:12:54.000Z</time></trkpt>
        <trkpt lat="28.7426055" lon="105.5690641"><ele>684.62</ele><time>2026-02-22T23:13:06.000Z</time></trkpt>
        <trkpt lat="28.7426093" lon="105.5691807"><ele>685.9</ele><time>2026-02-22T23:13:32.000Z</time></trkpt>
        <trkpt lat="28.7426183" lon="105.5692957"><ele>686.85</ele><time>2026-02-22T23:13:46.000Z</time></trkpt>
        <trkpt lat="28.7426301" lon="105.5694016"><ele>688.12</ele><time>2026-02-22T23:13:56.000Z</time></trkpt>
        <trkpt lat="28.7426211" lon="105.5695075"><ele>689.36</ele><time>2026-02-22T23:14:08.000Z</time></trkpt>
        <trkpt lat="28.7425786" lon="105.5696012"><ele>690.32</ele><time>2026-02-22T23:14:22.000Z</time></trkpt>
        <trkpt lat="28.7424937" lon="105.5696667"><ele>691</ele><time>2026-02-22T23:14:46.000Z</time></trkpt>
        <trkpt lat="28.7424073" lon="105.569729"><ele>690.79</ele><time>2026-02-22T23:14:56.000Z</time></trkpt>
        <trkpt lat="28.7423689" lon="105.569822"><ele>690.36</ele><time>2026-02-22T23:15:16.000Z</time></trkpt>
        <trkpt lat="28.7423602" lon="105.5699275"><ele>689.82</ele><time>2026-02-22T23:15:26.000Z</time></trkpt>
        <trkpt lat="28.7423532" lon="105.5700415"><ele>689.38</ele><time>2026-02-22T23:15:40.000Z</time></trkpt>
        <trkpt lat="28.7423745" lon="105.5701474"><ele>688.87</ele><time>2026-02-22T23:15:52.000Z</time></trkpt>
        <trkpt lat="28.742436" lon="105.5702354"><ele>688.07</ele><time>2026-02-22T23:16:08.000Z</time></trkpt>
        <trkpt lat="28.7425087" lon="105.5703205"><ele>686.53</ele><time>2026-02-22T23:16:26.000Z</time></trkpt>
        <trkpt lat="28.7425908" lon="105.5703942"><ele>684.32</ele><time>2026-02-22T23:16:40.000Z</time></trkpt>
        <trkpt lat="28.7426676" lon="105.570468"><ele>683.37</ele><time>2026-02-22T23:16:54.000Z</time></trkpt>
        <trkpt lat="28.7427483" lon="105.5705429"><ele>683.38</ele><time>2026-02-22T23:17:06.000Z</time></trkpt>
        <trkpt lat="28.7428459" lon="105.5705573"><ele>683.78</ele><time>2026-02-22T23:17:20.000Z</time></trkpt>
        <trkpt lat="28.7429417" lon="105.5705674"><ele>684.04</ele><time>2026-02-22T23:17:36.000Z</time></trkpt>
        <trkpt lat="28.743023" lon="105.5705167"><ele>684.41</ele><time>2026-02-22T23:17:48.000Z</time></trkpt>
        <trkpt lat="28.743106" lon="105.5704621"><ele>684.58</ele><time>2026-02-22T23:18:33.000Z</time></trkpt>
        <trkpt lat="28.7431489" lon="105.5703517"><ele>687.81</ele><time>2026-02-22T23:18:57.000Z</time></trkpt>
        <trkpt lat="28.7432285" lon="105.5703211"><ele>703.64</ele><time>2026-02-22T23:19:11.000Z</time></trkpt>
        <trkpt lat="28.7432988" lon="105.5702414"><ele>707.71</ele><time>2026-02-22T23:19:23.000Z</time></trkpt>
        <trkpt lat="28.7433525" lon="105.570148"><ele>709</ele><time>2026-02-22T23:19:35.000Z</time></trkpt>
        <trkpt lat="28.7434101" lon="105.570055"><ele>708.95</ele><time>2026-02-22T23:19:49.000Z</time></trkpt>
        <trkpt lat="28.7434639" lon="105.5699625"><ele>707.81</ele><time>2026-02-22T23:19:59.000Z</time></trkpt>
        <trkpt lat="28.743509" lon="105.569856"><ele>706</ele><time>2026-02-22T23:20:13.000Z</time></trkpt>
        <trkpt lat="28.7435589" lon="105.569756"><ele>702.77</ele><time>2026-02-22T23:20:25.000Z</time></trkpt>
        <trkpt lat="28.7436387" lon="105.569717"><ele>698.4</ele><time>2026-02-22T23:20:47.000Z</time></trkpt>
        <trkpt lat="28.7437271" lon="105.5696829"><ele>694.05</ele><time>2026-02-22T23:21:13.000Z</time></trkpt>
        <trkpt lat="28.7438157" lon="105.5696487"><ele>690.07</ele><time>2026-02-22T23:21:51.000Z</time></trkpt>
        <trkpt lat="28.7438933" lon="105.56958"><ele>684.84</ele><time>2026-02-22T23:23:25.000Z</time></trkpt>
        <trkpt lat="28.7439567" lon="105.5695017"><ele>676.82</ele><time>2026-02-22T23:24:57.000Z</time></trkpt>
        <trkpt lat="28.7440233" lon="105.569425"><ele>670.01</ele><time>2026-02-22T23:25:51.000Z</time></trkpt>
        <trkpt lat="28.7439683" lon="105.5695267"><ele>663.3</ele><time>2026-02-22T23:28:29.000Z</time></trkpt>
        <trkpt lat="28.7439483" lon="105.5694267"><ele>658.05</ele><time>2026-02-22T23:33:36.000Z</time></trkpt>
        <trkpt lat="28.7439" lon="105.5695517"><ele>655.79</ele><time>2026-02-22T23:37:19.000Z</time></trkpt>
        <trkpt lat="28.743795" lon="105.5696267"><ele>657.52</ele><time>2026-02-22T23:42:49.000Z</time></trkpt>
        <trkpt lat="28.7437083" lon="105.56966"><ele>661.64</ele><time>2026-02-22T23:44:05.000Z</time></trkpt>
        <trkpt lat="28.7436483" lon="105.5697483"><ele>667.56</ele><time>2026-02-22T23:44:43.000Z</time></trkpt>
        <trkpt lat="28.7435883" lon="105.5696872"><ele>672.09</ele><time>2026-02-22T23:45:25.000Z</time></trkpt>
        <trkpt lat="28.743509" lon="105.5696973"><ele>674.81</ele><time>2026-02-22T23:45:39.000Z</time></trkpt>
        <trkpt lat="28.7434475" lon="105.5697754"><ele>676.78</ele><time>2026-02-22T23:45:51.000Z</time></trkpt>
        <trkpt lat="28.7434068" lon="105.5698753"><ele>678.68</ele><time>2026-02-22T23:46:05.000Z</time></trkpt>
        <trkpt lat="28.7433595" lon="105.5699847"><ele>680.37</ele><time>2026-02-22T23:46:39.000Z</time></trkpt>
        <trkpt lat="28.7433209" lon="105.5700981"><ele>682.45</ele><time>2026-02-22T23:46:51.000Z</time></trkpt>
        <trkpt lat="28.7432915" lon="105.5702045"><ele>684.19</ele><time>2026-02-22T23:47:05.000Z</time></trkpt>
        <trkpt lat="28.7432509" lon="105.5702981"><ele>686.04</ele><time>2026-02-22T23:47:21.000Z</time></trkpt>
        <trkpt lat="28.7431691" lon="105.5703541"><ele>687.83</ele><time>2026-02-22T23:48:03.000Z</time></trkpt>
        <trkpt lat="28.7430433" lon="105.5704417"><ele>688.76</ele><time>2026-02-22T23:49:11.000Z</time></trkpt>
        <trkpt lat="28.7429783" lon="105.5705267"><ele>688.74</ele><time>2026-02-22T23:49:27.000Z</time></trkpt>
        <trkpt lat="28.7429303" lon="105.5706229"><ele>688.68</ele><time>2026-02-22T23:49:41.000Z</time></trkpt>
        <trkpt lat="28.7429366" lon="105.5707251"><ele>688.39</ele><time>2026-02-22T23:49:53.000Z</time></trkpt>
        <trkpt lat="28.7429877" lon="105.5708241"><ele>688.35</ele><time>2026-02-22T23:50:07.000Z</time></trkpt>
        <trkpt lat="28.7430505" lon="105.5709117"><ele>688.33</ele><time>2026-02-22T23:50:21.000Z</time></trkpt>
        <trkpt lat="28.7431125" lon="105.5710061"><ele>687.5</ele><time>2026-02-22T23:50:33.000Z</time></trkpt>
        <trkpt lat="28.7431812" lon="105.5710887"><ele>687.07</ele><time>2026-02-22T23:50:51.000Z</time></trkpt>
        <trkpt lat="28.7432735" lon="105.5711129"><ele>686.7</ele><time>2026-02-22T23:51:05.000Z</time></trkpt>
        <trkpt lat="28.7433781" lon="105.5711064"><ele>686.22</ele><time>2026-02-22T23:51:21.000Z</time></trkpt>
        <trkpt lat="28.7434728" lon="105.5711273"><ele>685.61</ele><time>2026-02-22T23:51:33.000Z</time></trkpt>
        <trkpt lat="28.7435723" lon="105.571173"><ele>685.18</ele><time>2026-02-22T23:51:53.000Z</time></trkpt>
        <trkpt lat="28.7436694" lon="105.5711756"><ele>688.15</ele><time>2026-02-22T23:52:07.000Z</time></trkpt>
        <trkpt lat="28.7437526" lon="105.5712188"><ele>691.14</ele><time>2026-02-22T23:52:33.000Z</time></trkpt>
        <trkpt lat="28.7438219" lon="105.571315"><ele>692.33</ele><time>2026-02-22T23:52:57.000Z</time></trkpt>
        <trkpt lat="28.7438755" lon="105.5714192"><ele>693.18</ele><time>2026-02-22T23:53:17.000Z</time></trkpt>
        <trkpt lat="28.7439596" lon="105.5714601"><ele>693.44</ele><time>2026-02-22T23:53:37.000Z</time></trkpt>
        <trkpt lat="28.7438783" lon="105.5713733"><ele>693.43</ele><time>2026-02-22T23:54:51.000Z</time></trkpt>
        <trkpt lat="28.7438283" lon="105.57128"><ele>694.19</ele><time>2026-02-22T23:55:17.000Z</time></trkpt>
        <trkpt lat="28.7437868" lon="105.5711824"><ele>695.05</ele><time>2026-02-22T23:55:31.000Z</time></trkpt>
        <trkpt lat="28.7437094" lon="105.5711214"><ele>694.69</ele><time>2026-02-22T23:55:47.000Z</time></trkpt>
        <trkpt lat="28.7436184" lon="105.5711044"><ele>693.88</ele><time>2026-02-22T23:55:59.000Z</time></trkpt>
        <trkpt lat="28.7435622" lon="105.5711873"><ele>693.11</ele><time>2026-02-22T23:56:19.000Z</time></trkpt>
        <trkpt lat="28.7435592" lon="105.5713024"><ele>691.34</ele><time>2026-02-22T23:56:31.000Z</time></trkpt>
        <trkpt lat="28.7435532" lon="105.571422"><ele>689.95</ele><time>2026-02-22T23:56:43.000Z</time></trkpt>
        <trkpt lat="28.7435015" lon="105.5715125"><ele>688.98</ele><time>2026-02-22T23:56:55.000Z</time></trkpt>
        <trkpt lat="28.7434238" lon="105.5715954"><ele>688.43</ele><time>2026-02-22T23:57:07.000Z</time></trkpt>
        <trkpt lat="28.743332" lon="105.5716441"><ele>688.25</ele><time>2026-02-22T23:57:21.000Z</time></trkpt>
        <trkpt lat="28.7432361" lon="105.5716719"><ele>687.84</ele><time>2026-02-22T23:57:35.000Z</time></trkpt>
        <trkpt lat="28.7431481" lon="105.5717341"><ele>687.69</ele><time>2026-02-22T23:57:47.000Z</time></trkpt>
        <trkpt lat="28.7430769" lon="105.5718137"><ele>687.48</ele><time>2026-02-22T23:57:59.000Z</time></trkpt>
        <trkpt lat="28.7430459" lon="105.5719114"><ele>687.02</ele><time>2026-02-22T23:58:09.000Z</time></trkpt>
        <trkpt lat="28.7430387" lon="105.5720182"><ele>686.62</ele><time>2026-02-22T23:58:19.000Z</time></trkpt>
        <trkpt lat="28.7430477" lon="105.5721267"><ele>686.27</ele><time>2026-02-22T23:58:29.000Z</time></trkpt>
        <trkpt lat="28.7430536" lon="105.572243"><ele>686.07</ele><time>2026-02-22T23:58:43.000Z</time></trkpt>
        <trkpt lat="28.743046" lon="105.5723502"><ele>686.3</ele><time>2026-02-22T23:58:55.000Z</time></trkpt>
        <trkpt lat="28.7430325" lon="105.5724532"><ele>686.47</ele><time>2026-02-22T23:59:09.000Z</time></trkpt>
        <trkpt lat="28.743037" lon="105.5725634"><ele>686.31</ele><time>2026-02-22T23:59:27.000Z</time></trkpt>
        <trkpt lat="28.7430774" lon="105.572659"><ele>685.75</ele><time>2026-02-22T23:59:47.000Z</time></trkpt>
        <trkpt lat="28.7431287" lon="105.5727602"><ele>683.27</ele><time>2026-02-23T00:00:07.000Z</time></trkpt>
        <trkpt lat="28.7431668" lon="105.5728705"><ele>680.66</ele><time>2026-02-23T00:00:23.000Z</time></trkpt>
        <trkpt lat="28.7431455" lon="105.572979"><ele>679</ele><time>2026-02-23T00:00:45.000Z</time></trkpt>
        <trkpt lat="28.7431047" lon="105.5730815"><ele>678.23</ele><time>2026-02-23T00:00:57.000Z</time></trkpt>
        <trkpt lat="28.7430337" lon="105.5731553"><ele>678</ele><time>2026-02-23T00:01:11.000Z</time></trkpt>
        <trkpt lat="28.7429531" lon="105.5732188"><ele>678.73</ele><time>2026-02-23T00:01:25.000Z</time></trkpt>
        <trkpt lat="28.7428633" lon="105.5732528"><ele>679.28</ele><time>2026-02-23T00:01:39.000Z</time></trkpt>
        <trkpt lat="28.7427623" lon="105.5732537"><ele>678.94</ele><time>2026-02-23T00:01:51.000Z</time></trkpt>
        <trkpt lat="28.7426927" lon="105.5733149"><ele>678.11</ele><time>2026-02-23T00:02:21.000Z</time></trkpt>
        <trkpt lat="28.7426624" lon="105.5734113"><ele>677.76</ele><time>2026-02-23T00:02:39.000Z</time></trkpt>
        <trkpt lat="28.7426467" lon="105.5735202"><ele>677.13</ele><time>2026-02-23T00:03:17.000Z</time></trkpt>
        <trkpt lat="28.7426199" lon="105.5736283"><ele>678.62</ele><time>2026-02-23T00:03:33.000Z</time></trkpt>
        <trkpt lat="28.7425782" lon="105.5737327"><ele>685.54</ele><time>2026-02-23T00:03:51.000Z</time></trkpt>
        <trkpt lat="28.7424978" lon="105.573782"><ele>685.31</ele><time>2026-02-23T00:04:27.000Z</time></trkpt>
        <trkpt lat="28.7423951" lon="105.5737757"><ele>682.08</ele><time>2026-02-23T00:04:41.000Z</time></trkpt>
        <trkpt lat="28.7422878" lon="105.573737"><ele>679.03</ele><time>2026-02-23T00:05:17.000Z</time></trkpt>
        <trkpt lat="28.7421839" lon="105.5737034"><ele>676.27</ele><time>2026-02-23T00:05:47.000Z</time></trkpt>
        <trkpt lat="28.742158" lon="105.573607"><ele>674.99</ele><time>2026-02-23T00:06:15.000Z</time></trkpt>
        <trkpt lat="28.7421223" lon="105.5736386"><ele>672.71</ele><time>2026-02-23T00:06:49.000Z</time></trkpt>
        <trkpt lat="28.7421433" lon="105.573565"><ele>672.75</ele><time>2026-02-23T00:07:57.000Z</time></trkpt>
        <trkpt lat="28.7422283" lon="105.5734967"><ele>672</ele><time>2026-02-23T00:08:43.000Z</time></trkpt>
        <trkpt lat="28.7421596" lon="105.5734974"><ele>669.93</ele><time>2026-02-23T00:09:27.000Z</time></trkpt>
        <trkpt lat="28.7421023" lon="105.5735709"><ele>670.26</ele><time>2026-02-23T00:09:39.000Z</time></trkpt>
        <trkpt lat="28.7420477" lon="105.5736649"><ele>670.49</ele><time>2026-02-23T00:09:51.000Z</time></trkpt>
        <trkpt lat="28.7419608" lon="105.573702"><ele>671.01</ele><time>2026-02-23T00:10:11.000Z</time></trkpt>
        <trkpt lat="28.741866" lon="105.5737356"><ele>671.14</ele><time>2026-02-23T00:10:33.000Z</time></trkpt>
        <trkpt lat="28.7417709" lon="105.5737752"><ele>668.71</ele><time>2026-02-23T00:10:59.000Z</time></trkpt>
        <trkpt lat="28.7416901" lon="105.57383"><ele>666.13</ele><time>2026-02-23T00:11:27.000Z</time></trkpt>
        <trkpt lat="28.7415883" lon="105.5738633"><ele>664.05</ele><time>2026-02-23T00:13:57.000Z</time></trkpt>
        <trkpt lat="28.7415033" lon="105.5739067"><ele>660.8</ele><time>2026-02-23T00:14:17.000Z</time></trkpt>
        <trkpt lat="28.7414212" lon="105.5739697"><ele>658.61</ele><time>2026-02-23T00:14:29.000Z</time></trkpt>
        <trkpt lat="28.7413266" lon="105.57399"><ele>656.8</ele><time>2026-02-23T00:14:39.000Z</time></trkpt>
        <trkpt lat="28.7412357" lon="105.5739694"><ele>655.12</ele><time>2026-02-23T00:14:51.000Z</time></trkpt>
        <trkpt lat="28.741144" lon="105.5739538"><ele>653.31</ele><time>2026-02-23T00:15:07.000Z</time></trkpt>
        <trkpt lat="28.7410521" lon="105.5739443"><ele>651.45</ele><time>2026-02-23T00:15:21.000Z</time></trkpt>
        <trkpt lat="28.7409627" lon="105.5739173"><ele>649.58</ele><time>2026-02-23T00:15:47.000Z</time></trkpt>
        <trkpt lat="28.7408606" lon="105.5738654"><ele>647.57</ele><time>2026-02-23T00:16:03.000Z</time></trkpt>
        <trkpt lat="28.7407562" lon="105.5738257"><ele>646.16</ele><time>2026-02-23T00:16:13.000Z</time></trkpt>
        <trkpt lat="28.7406616" lon="105.5738025"><ele>645.71</ele><time>2026-02-23T00:16:23.000Z</time></trkpt>
        <trkpt lat="28.7405673" lon="105.5737731"><ele>645.27</ele><time>2026-02-23T00:16:33.000Z</time></trkpt>
        <trkpt lat="28.7404641" lon="105.5737634"><ele>644.73</ele><time>2026-02-23T00:16:45.000Z</time></trkpt>
        <trkpt lat="28.7403674" lon="105.5737633"><ele>644.16</ele><time>2026-02-23T00:17:03.000Z</time></trkpt>
        <trkpt lat="28.7402748" lon="105.5737356"><ele>643.66</ele><time>2026-02-23T00:17:19.000Z</time></trkpt>
        <trkpt lat="28.7401836" lon="105.5737067"><ele>642.17</ele><time>2026-02-23T00:17:31.000Z</time></trkpt>
        <trkpt lat="28.7400913" lon="105.5737008"><ele>639.65</ele><time>2026-02-23T00:17:49.000Z</time></trkpt>
        <trkpt lat="28.7400046" lon="105.5737352"><ele>636.7</ele><time>2026-02-23T00:18:05.000Z</time></trkpt>
        <trkpt lat="28.7399287" lon="105.5737984"><ele>634.29</ele><time>2026-02-23T00:18:19.000Z</time></trkpt>
        <trkpt lat="28.7398388" lon="105.5738318"><ele>632.49</ele><time>2026-02-23T00:18:33.000Z</time></trkpt>
        <trkpt lat="28.7397894" lon="105.573924"><ele>631.55</ele><time>2026-02-23T00:18:43.000Z</time></trkpt>
        <trkpt lat="28.7398441" lon="105.5739863"><ele>630.97</ele><time>2026-02-23T00:19:17.000Z</time></trkpt>
        <trkpt lat="28.7399159" lon="105.5740683"><ele>639.89</ele><time>2026-02-23T00:19:40.000Z</time></trkpt>
        <trkpt lat="28.7400061" lon="105.5741248"><ele>640.71</ele><time>2026-02-23T00:19:54.000Z</time></trkpt>
        <trkpt lat="28.740057" lon="105.5742186"><ele>640.58</ele><time>2026-02-23T00:20:08.000Z</time></trkpt>
        <trkpt lat="28.7400778" lon="105.574323"><ele>639.77</ele><time>2026-02-23T00:20:22.000Z</time></trkpt>
        <trkpt lat="28.7400552" lon="105.5744246"><ele>639.18</ele><time>2026-02-23T00:20:58.000Z</time></trkpt>
        <trkpt lat="28.74005" lon="105.5745301"><ele>636.65</ele><time>2026-02-23T00:21:16.000Z</time></trkpt>
        <trkpt lat="28.7400319" lon="105.5746389"><ele>635.51</ele><time>2026-02-23T00:21:36.000Z</time></trkpt>
        <trkpt lat="28.7399749" lon="105.5747195"><ele>634.86</ele><time>2026-02-23T00:21:54.000Z</time></trkpt>
        <trkpt lat="28.7398935" lon="105.5747806"><ele>633.97</ele><time>2026-02-23T00:22:16.000Z</time></trkpt>
        <trkpt lat="28.7397997" lon="105.574782"><ele>633.25</ele><time>2026-02-23T00:22:54.000Z</time></trkpt>
        <trkpt lat="28.7397017" lon="105.5747672"><ele>632.16</ele><time>2026-02-23T00:23:12.000Z</time></trkpt>
        <trkpt lat="28.7396518" lon="105.5748433"><ele>631.14</ele><time>2026-02-23T00:23:30.000Z</time></trkpt>
        <trkpt lat="28.7395971" lon="105.5749306"><ele>632.24</ele><time>2026-02-23T00:23:44.000Z</time></trkpt>
        <trkpt lat="28.7395739" lon="105.5750726"><ele>633.51</ele><time>2026-02-23T00:24:04.000Z</time></trkpt>
        <trkpt lat="28.7395213" lon="105.5751746"><ele>635.1</ele><time>2026-02-23T00:24:18.000Z</time></trkpt>
        <trkpt lat="28.7394671" lon="105.575264"><ele>636.05</ele><time>2026-02-23T00:24:32.000Z</time></trkpt>
        <trkpt lat="28.7394216" lon="105.5753587"><ele>636.46</ele><time>2026-02-23T00:24:42.000Z</time></trkpt>
        <trkpt lat="28.7394034" lon="105.5754798"><ele>636.39</ele><time>2026-02-23T00:24:58.000Z</time></trkpt>
        <trkpt lat="28.7393923" lon="105.5755905"><ele>636.14</ele><time>2026-02-23T00:25:10.000Z</time></trkpt>
        <trkpt lat="28.7393723" lon="105.5756949"><ele>635.65</ele><time>2026-02-23T00:25:22.000Z</time></trkpt>
        <trkpt lat="28.7393251" lon="105.5757804"><ele>634.72</ele><time>2026-02-23T00:25:38.000Z</time></trkpt>
        <trkpt lat="28.7392653" lon="105.5758568"><ele>633.38</ele><time>2026-02-23T00:25:48.000Z</time></trkpt>
        <trkpt lat="28.7391873" lon="105.5759172"><ele>632.18</ele><time>2026-02-23T00:26:00.000Z</time></trkpt>
        <trkpt lat="28.7390965" lon="105.5759729"><ele>631.5</ele><time>2026-02-23T00:26:16.000Z</time></trkpt>
        <trkpt lat="28.7390229" lon="105.5760484"><ele>631.11</ele><time>2026-02-23T00:26:32.000Z</time></trkpt>
        <trkpt lat="28.7389221" lon="105.5760821"><ele>630.94</ele><time>2026-02-23T00:26:44.000Z</time></trkpt>
        <trkpt lat="28.7388376" lon="105.5761376"><ele>630.83</ele><time>2026-02-23T00:27:08.000Z</time></trkpt>
        <trkpt lat="28.7387517" lon="105.5761792"><ele>631.9</ele><time>2026-02-23T00:27:20.000Z</time></trkpt>
        <trkpt lat="28.738689" lon="105.5762494"><ele>633.1</ele><time>2026-02-23T00:27:30.000Z</time></trkpt>
        <trkpt lat="28.7387317" lon="105.5763667"><ele>634.35</ele><time>2026-02-23T00:28:54.000Z</time></trkpt>
        <trkpt lat="28.738785" lon="105.576455"><ele>633.77</ele><time>2026-02-23T00:29:10.000Z</time></trkpt>
        <trkpt lat="28.7388792" lon="105.5764672"><ele>630.73</ele><time>2026-02-23T00:29:22.000Z</time></trkpt>
        <trkpt lat="28.7389756" lon="105.5764903"><ele>628.22</ele><time>2026-02-23T00:29:44.000Z</time></trkpt>
        <trkpt lat="28.7390577" lon="105.5765378"><ele>625.98</ele><time>2026-02-23T00:30:00.000Z</time></trkpt>
        <trkpt lat="28.7391479" lon="105.576571"><ele>624.27</ele><time>2026-02-23T00:30:22.000Z</time></trkpt>
        <trkpt lat="28.7392362" lon="105.5766084"><ele>623.46</ele><time>2026-02-23T00:30:46.000Z</time></trkpt>
        <trkpt lat="28.7393109" lon="105.5766665"><ele>624.43</ele><time>2026-02-23T00:31:02.000Z</time></trkpt>
        <trkpt lat="28.7394019" lon="105.5766996"><ele>625.06</ele><time>2026-02-23T00:31:20.000Z</time></trkpt>
        <trkpt lat="28.7394895" lon="105.5767338"><ele>625.77</ele><time>2026-02-23T00:31:44.000Z</time></trkpt>
        <trkpt lat="28.7395302" lon="105.5768167"><ele>625.82</ele><time>2026-02-23T00:32:02.000Z</time></trkpt>
        <trkpt lat="28.7395688" lon="105.576924"><ele>625.17</ele><time>2026-02-23T00:32:14.000Z</time></trkpt>
        <trkpt lat="28.7395953" lon="105.5770327"><ele>625.35</ele><time>2026-02-23T00:32:28.000Z</time></trkpt>
        <trkpt lat="28.7395926" lon="105.5771493"><ele>626.15</ele><time>2026-02-23T00:32:58.000Z</time></trkpt>
        <trkpt lat="28.7395619" lon="105.577256"><ele>627.2</ele><time>2026-02-23T00:33:12.000Z</time></trkpt>
        <trkpt lat="28.7395295" lon="105.5773629"><ele>627.8</ele><time>2026-02-23T00:33:24.000Z</time></trkpt>
        <trkpt lat="28.7395419" lon="105.5774698"><ele>628.15</ele><time>2026-02-23T00:33:34.000Z</time></trkpt>
        <trkpt lat="28.739611" lon="105.5775265"><ele>628.6</ele><time>2026-02-23T00:33:44.000Z</time></trkpt>
        <trkpt lat="28.7397093" lon="105.5775273"><ele>629.42</ele><time>2026-02-23T00:33:58.000Z</time></trkpt>
        <trkpt lat="28.739813" lon="105.5775279"><ele>628.89</ele><time>2026-02-23T00:34:10.000Z</time></trkpt>
        <trkpt lat="28.7399087" lon="105.5775579"><ele>629.28</ele><time>2026-02-23T00:34:24.000Z</time></trkpt>
        <trkpt lat="28.7399755" lon="105.5776363"><ele>630.58</ele><time>2026-02-23T00:34:42.000Z</time></trkpt>
        <trkpt lat="28.7400321" lon="105.5777219"><ele>633.08</ele><time>2026-02-23T00:35:02.000Z</time></trkpt>
        <trkpt lat="28.7401076" lon="105.5777835"><ele>635.63</ele><time>2026-02-23T00:35:16.000Z</time></trkpt>
        <trkpt lat="28.7401522" lon="105.5778833"><ele>637.25</ele><time>2026-02-23T00:35:42.000Z</time></trkpt>
        <trkpt lat="28.7402065" lon="105.5779799"><ele>637.79</ele><time>2026-02-23T00:35:56.000Z</time></trkpt>
        <trkpt lat="28.7402558" lon="105.5780771"><ele>638.14</ele><time>2026-02-23T00:36:08.000Z</time></trkpt>
        <trkpt lat="28.740286" lon="105.5781787"><ele>638.34</ele><time>2026-02-23T00:36:16.000Z</time></trkpt>
        <trkpt lat="28.7403309" lon="105.5782713"><ele>638.36</ele><time>2026-02-23T00:36:34.000Z</time></trkpt>
        <trkpt lat="28.7404367" lon="105.5783783"><ele>638.59</ele><time>2026-02-23T00:37:40.000Z</time></trkpt>
        <trkpt lat="28.7404433" lon="105.578505"><ele>640.62</ele><time>2026-02-23T00:38:24.000Z</time></trkpt>
        <trkpt lat="28.7404415" lon="105.5786119"><ele>643.45</ele><time>2026-02-23T00:38:46.000Z</time></trkpt>
        <trkpt lat="28.7404434" lon="105.5787166"><ele>646.48</ele><time>2026-02-23T00:39:02.000Z</time></trkpt>
        <trkpt lat="28.7404476" lon="105.5788256"><ele>649.11</ele><time>2026-02-23T00:39:16.000Z</time></trkpt>
        <trkpt lat="28.7404451" lon="105.5789364"><ele>650.91</ele><time>2026-02-23T00:39:28.000Z</time></trkpt>
        <trkpt lat="28.7404564" lon="105.5790404"><ele>651.9</ele><time>2026-02-23T00:40:00.000Z</time></trkpt>
        <trkpt lat="28.7404993" lon="105.5791319"><ele>652.29</ele><time>2026-02-23T00:40:14.000Z</time></trkpt>
        <trkpt lat="28.7405369" lon="105.5792355"><ele>652.25</ele><time>2026-02-23T00:40:30.000Z</time></trkpt>
        <trkpt lat="28.7405554" lon="105.5793418"><ele>650.81</ele><time>2026-02-23T00:40:40.000Z</time></trkpt>
        <trkpt lat="28.7405174" lon="105.5794376"><ele>648.91</ele><time>2026-02-23T00:40:56.000Z</time></trkpt>
        <trkpt lat="28.7404768" lon="105.5795432"><ele>647.66</ele><time>2026-02-23T00:41:22.000Z</time></trkpt>
        <trkpt lat="28.74043" lon="105.5796415"><ele>647.85</ele><time>2026-02-23T00:41:36.000Z</time></trkpt>
        <trkpt lat="28.7404517" lon="105.5797355"><ele>648.3</ele><time>2026-02-23T00:41:50.000Z</time></trkpt>
        <trkpt lat="28.7404849" lon="105.5798483"><ele>648.52</ele><time>2026-02-23T00:42:10.000Z</time></trkpt>
        <trkpt lat="28.740593" lon="105.5799019"><ele>647.73</ele><time>2026-02-23T00:42:22.000Z</time></trkpt>
        <trkpt lat="28.7406926" lon="105.5799481"><ele>646.95</ele><time>2026-02-23T00:42:38.000Z</time></trkpt>
        <trkpt lat="28.7407699" lon="105.5800106"><ele>646.54</ele><time>2026-02-23T00:42:50.000Z</time></trkpt>
        <trkpt lat="28.7408355" lon="105.5800836"><ele>645.15</ele><time>2026-02-23T00:42:58.000Z</time></trkpt>
        <trkpt lat="28.7408855" lon="105.5801792"><ele>644.87</ele><time>2026-02-23T00:43:12.000Z</time></trkpt>
        <trkpt lat="28.740958" lon="105.5802538"><ele>645.48</ele><time>2026-02-23T00:43:26.000Z</time></trkpt>
        <trkpt lat="28.7410312" lon="105.5803217"><ele>646.09</ele><time>2026-02-23T00:43:44.000Z</time></trkpt>
        <trkpt lat="28.7411065" lon="105.5803887"><ele>646.4</ele><time>2026-02-23T00:44:16.000Z</time></trkpt>
        <trkpt lat="28.7411472" lon="105.5804798"><ele>646.83</ele><time>2026-02-23T00:44:30.000Z</time></trkpt>
        <trkpt lat="28.7411172" lon="105.5805737"><ele>646.39</ele><time>2026-02-23T00:44:50.000Z</time></trkpt>
        <trkpt lat="28.7410921" lon="105.5806826"><ele>647.68</ele><time>2026-02-23T00:45:14.000Z</time></trkpt>
        <trkpt lat="28.7410822" lon="105.5807912"><ele>648.64</ele><time>2026-02-23T00:45:32.000Z</time></trkpt>
        <trkpt lat="28.741054" lon="105.5808984"><ele>647.98</ele><time>2026-02-23T00:46:10.000Z</time></trkpt>
        <trkpt lat="28.7409868" lon="105.5809807"><ele>647.51</ele><time>2026-02-23T00:46:26.000Z</time></trkpt>
        <trkpt lat="28.7409328" lon="105.5810888"><ele>647.64</ele><time>2026-02-23T00:46:52.000Z</time></trkpt>
        <trkpt lat="28.7408965" lon="105.5811949"><ele>647.06</ele><time>2026-02-23T00:47:06.000Z</time></trkpt>
        <trkpt lat="28.74087" lon="105.5813121"><ele>646.43</ele><time>2026-02-23T00:47:18.000Z</time></trkpt>
        <trkpt lat="28.74082" lon="105.5814029"><ele>645.9</ele><time>2026-02-23T00:48:18.000Z</time></trkpt>
        <trkpt lat="28.7407382" lon="105.5814559"><ele>644.87</ele><time>2026-02-23T00:48:30.000Z</time></trkpt>
        <trkpt lat="28.7406443" lon="105.5814459"><ele>644.24</ele><time>2026-02-23T00:48:48.000Z</time></trkpt>
        <trkpt lat="28.740557" lon="105.5813905"><ele>643.92</ele><time>2026-02-23T00:49:06.000Z</time></trkpt>
        <trkpt lat="28.7404802" lon="105.5814174"><ele>644.47</ele><time>2026-02-23T00:49:18.000Z</time></trkpt>
        <trkpt lat="28.7404666" lon="105.5815093"><ele>645.09</ele><time>2026-02-23T00:49:50.000Z</time></trkpt>
        <trkpt lat="28.7404458" lon="105.581647"><ele>645.91</ele><time>2026-02-23T00:50:34.000Z</time></trkpt>
        <trkpt lat="28.7404088" lon="105.5817668"><ele>647.58</ele><time>2026-02-23T00:51:00.000Z</time></trkpt>
        <trkpt lat="28.7403832" lon="105.5819128"><ele>651.59</ele><time>2026-02-23T00:51:30.000Z</time></trkpt>
        <trkpt lat="28.7403793" lon="105.5820316"><ele>655.17</ele><time>2026-02-23T00:51:50.000Z</time></trkpt>
        <trkpt lat="28.7403314" lon="105.5821169"><ele>658.49</ele><time>2026-02-23T00:52:04.000Z</time></trkpt>
        <trkpt lat="28.7402748" lon="105.5822091"><ele>660.43</ele><time>2026-02-23T00:52:16.000Z</time></trkpt>
        <trkpt lat="28.7402265" lon="105.5823032"><ele>661.92</ele><time>2026-02-23T00:52:46.000Z</time></trkpt>
        <trkpt lat="28.7402052" lon="105.5824125"><ele>662.56</ele><time>2026-02-23T00:53:04.000Z</time></trkpt>
        <trkpt lat="28.7402141" lon="105.5825313"><ele>662.66</ele><time>2026-02-23T00:53:16.000Z</time></trkpt>
        <trkpt lat="28.7402225" lon="105.5826429"><ele>662.81</ele><time>2026-02-23T00:53:26.000Z</time></trkpt>
        <trkpt lat="28.7402223" lon="105.5827484"><ele>662.93</ele><time>2026-02-23T00:53:40.000Z</time></trkpt>
        <trkpt lat="28.7402263" lon="105.5828604"><ele>662.53</ele><time>2026-02-23T00:53:52.000Z</time></trkpt>
        <trkpt lat="28.7402456" lon="105.5829739"><ele>659.55</ele><time>2026-02-23T00:54:08.000Z</time></trkpt>
        <trkpt lat="28.740245" lon="105.5830833"><ele>658.45</ele><time>2026-02-23T00:55:24.000Z</time></trkpt>
        <trkpt lat="28.7401733" lon="105.5831717"><ele>658.99</ele><time>2026-02-23T00:55:38.000Z</time></trkpt>
        <trkpt lat="28.7401412" lon="105.5832699"><ele>658.91</ele><time>2026-02-23T00:55:46.000Z</time></trkpt>
        <trkpt lat="28.7401211" lon="105.5833737"><ele>659.33</ele><time>2026-02-23T00:55:56.000Z</time></trkpt>
        <trkpt lat="28.7401201" lon="105.5834906"><ele>659.58</ele><time>2026-02-23T00:56:06.000Z</time></trkpt>
        <trkpt lat="28.7401476" lon="105.5835994"><ele>659.37</ele><time>2026-02-23T00:56:18.000Z</time></trkpt>
        <trkpt lat="28.7401825" lon="105.5836993"><ele>658.27</ele><time>2026-02-23T00:56:34.000Z</time></trkpt>
        <trkpt lat="28.74018" lon="105.5838046"><ele>656.82</ele><time>2026-02-23T00:56:52.000Z</time></trkpt>
        <trkpt lat="28.7401106" lon="105.583861"><ele>654.44</ele><time>2026-02-23T00:57:04.000Z</time></trkpt>
        <trkpt lat="28.7401144" lon="105.583942"><ele>652.02</ele><time>2026-02-23T00:57:20.000Z</time></trkpt>
        <trkpt lat="28.7401354" lon="105.5840597"><ele>649.17</ele><time>2026-02-23T00:57:48.000Z</time></trkpt>
        <trkpt lat="28.7401871" lon="105.5841621"><ele>645.48</ele><time>2026-02-23T00:58:00.000Z</time></trkpt>
        <trkpt lat="28.7402458" lon="105.5842531"><ele>643.17</ele><time>2026-02-23T00:58:18.000Z</time></trkpt>
        <trkpt lat="28.7402905" lon="105.584346"><ele>641.25</ele><time>2026-02-23T00:58:30.000Z</time></trkpt>
        <trkpt lat="28.7403384" lon="105.5844451"><ele>639.51</ele><time>2026-02-23T00:58:40.000Z</time></trkpt>
        <trkpt lat="28.740322" lon="105.5845467"><ele>637.57</ele><time>2026-02-23T00:59:12.000Z</time></trkpt>
        <trkpt lat="28.7403058" lon="105.5846589"><ele>636.42</ele><time>2026-02-23T00:59:34.000Z</time></trkpt>
        <trkpt lat="28.7403505" lon="105.584741"><ele>635.34</ele><time>2026-02-23T00:59:46.000Z</time></trkpt>
        <trkpt lat="28.7404294" lon="105.5847925"><ele>634.42</ele><time>2026-02-23T01:00:06.000Z</time></trkpt>
        <trkpt lat="28.7405158" lon="105.5848604"><ele>633.29</ele><time>2026-02-23T01:00:30.000Z</time></trkpt>
        <trkpt lat="28.740588" lon="105.5849404"><ele>632.43</ele><time>2026-02-23T01:00:44.000Z</time></trkpt>
        <trkpt lat="28.7406518" lon="105.5850327"><ele>631.52</ele><time>2026-02-23T01:01:00.000Z</time></trkpt>
        <trkpt lat="28.7406707" lon="105.5851566"><ele>630.86</ele><time>2026-02-23T01:01:46.000Z</time></trkpt>
        <trkpt lat="28.7406724" lon="105.585276"><ele>632.17</ele><time>2026-02-23T01:02:08.000Z</time></trkpt>
        <trkpt lat="28.7406779" lon="105.5854141"><ele>634.33</ele><time>2026-02-23T01:02:36.000Z</time></trkpt>
        <trkpt lat="28.7406645" lon="105.5855482"><ele>636.94</ele><time>2026-02-23T01:03:14.000Z</time></trkpt>
        <trkpt lat="28.7406766" lon="105.5856729"><ele>640.11</ele><time>2026-02-23T01:03:28.000Z</time></trkpt>
        <trkpt lat="28.7406908" lon="105.5857824"><ele>643.12</ele><time>2026-02-23T01:03:40.000Z</time></trkpt>
        <trkpt lat="28.7406865" lon="105.5859315"><ele>645.86</ele><time>2026-02-23T01:04:18.000Z</time></trkpt>
        <trkpt lat="28.7406774" lon="105.5860536"><ele>647.73</ele><time>2026-02-23T01:04:56.000Z</time></trkpt>
        <trkpt lat="28.7406662" lon="105.5861603"><ele>650.64</ele><time>2026-02-23T01:05:14.000Z</time></trkpt>
        <trkpt lat="28.7406183" lon="105.5862517"><ele>653.29</ele><time>2026-02-23T01:06:20.000Z</time></trkpt>
        <trkpt lat="28.74054" lon="105.586315"><ele>659.79</ele><time>2026-02-23T01:06:36.000Z</time></trkpt>
        <trkpt lat="28.7404758" lon="105.5863953"><ele>663.54</ele><time>2026-02-23T01:06:54.000Z</time></trkpt>
        <trkpt lat="28.7404517" lon="105.58658"><ele>665.93</ele><time>2026-02-23T01:08:16.000Z</time></trkpt>
        <trkpt lat="28.7404367" lon="105.586685"><ele>669.01</ele><time>2026-02-23T01:08:30.000Z</time></trkpt>
        <trkpt lat="28.7404724" lon="105.5867829"><ele>670.04</ele><time>2026-02-23T01:08:55.000Z</time></trkpt>
        <trkpt lat="28.7404567" lon="105.5868822"><ele>668.78</ele><time>2026-02-23T01:09:07.000Z</time></trkpt>
        <trkpt lat="28.7404139" lon="105.5869794"><ele>666.81</ele><time>2026-02-23T01:09:21.000Z</time></trkpt>
        <trkpt lat="28.7403484" lon="105.5870683"><ele>665.13</ele><time>2026-02-23T01:09:35.000Z</time></trkpt>
        <trkpt lat="28.7402705" lon="105.5871331"><ele>663.87</ele><time>2026-02-23T01:09:51.000Z</time></trkpt>
        <trkpt lat="28.7401729" lon="105.5871695"><ele>664.27</ele><time>2026-02-23T01:10:05.000Z</time></trkpt>
        <trkpt lat="28.7400802" lon="105.5872123"><ele>664.67</ele><time>2026-02-23T01:10:15.000Z</time></trkpt>
        <trkpt lat="28.7399802" lon="105.5872397"><ele>665.11</ele><time>2026-02-23T01:10:25.000Z</time></trkpt>
        <trkpt lat="28.7399059" lon="105.5873076"><ele>665.02</ele><time>2026-02-23T01:10:45.000Z</time></trkpt>
        <trkpt lat="28.7398256" lon="105.5873777"><ele>664.71</ele><time>2026-02-23T01:10:59.000Z</time></trkpt>
        <trkpt lat="28.7397609" lon="105.5874623"><ele>664.36</ele><time>2026-02-23T01:11:11.000Z</time></trkpt>
        <trkpt lat="28.7397005" lon="105.5875486"><ele>663.82</ele><time>2026-02-23T01:11:29.000Z</time></trkpt>
        <trkpt lat="28.739632" lon="105.5876319"><ele>662.69</ele><time>2026-02-23T01:11:45.000Z</time></trkpt>
        <trkpt lat="28.7395522" lon="105.5877007"><ele>661.41</ele><time>2026-02-23T01:12:09.000Z</time></trkpt>
        <trkpt lat="28.7394859" lon="105.5877802"><ele>659.77</ele><time>2026-02-23T01:12:21.000Z</time></trkpt>
        <trkpt lat="28.7394753" lon="105.5878794"><ele>658.62</ele><time>2026-02-23T01:12:31.000Z</time></trkpt>
        <trkpt lat="28.7394308" lon="105.5879793"><ele>657.62</ele><time>2026-02-23T01:12:43.000Z</time></trkpt>
        <trkpt lat="28.7393781" lon="105.5880769"><ele>656.54</ele><time>2026-02-23T01:12:55.000Z</time></trkpt>
        <trkpt lat="28.7393426" lon="105.5881768"><ele>655.7</ele><time>2026-02-23T01:13:11.000Z</time></trkpt>
        <trkpt lat="28.7392889" lon="105.5882636"><ele>654.84</ele><time>2026-02-23T01:13:32.000Z</time></trkpt>
        <trkpt lat="28.7392579" lon="105.5883703"><ele>652.37</ele><time>2026-02-23T01:14:10.000Z</time></trkpt>
        <trkpt lat="28.7392145" lon="105.5884699"><ele>652.04</ele><time>2026-02-23T01:14:26.000Z</time></trkpt>
        <trkpt lat="28.7391745" lon="105.5885811"><ele>651.16</ele><time>2026-02-23T01:14:52.000Z</time></trkpt>
        <trkpt lat="28.7391134" lon="105.588674"><ele>647.48</ele><time>2026-02-23T01:15:10.000Z</time></trkpt>
        <trkpt lat="28.7390645" lon="105.5887658"><ele>643.53</ele><time>2026-02-23T01:15:22.000Z</time></trkpt>
        <trkpt lat="28.73901" lon="105.5888917"><ele>640.81</ele><time>2026-02-23T01:16:02.000Z</time></trkpt>
        <trkpt lat="28.7389683" lon="105.5890017"><ele>639.21</ele><time>2026-02-23T01:16:12.000Z</time></trkpt>
        <trkpt lat="28.7389115" lon="105.5890916"><ele>639.04</ele><time>2026-02-23T01:16:30.000Z</time></trkpt>
        <trkpt lat="28.7388562" lon="105.589178"><ele>640.05</ele><time>2026-02-23T01:16:46.000Z</time></trkpt>
        <trkpt lat="28.7387907" lon="105.5892517"><ele>641.92</ele><time>2026-02-23T01:17:02.000Z</time></trkpt>
        <trkpt lat="28.7387204" lon="105.5893591"><ele>643.89</ele><time>2026-02-23T01:17:30.000Z</time></trkpt>
        <trkpt lat="28.7386728" lon="105.5894661"><ele>645.7</ele><time>2026-02-23T01:17:40.000Z</time></trkpt>
        <trkpt lat="28.7386241" lon="105.5895579"><ele>645.83</ele><time>2026-02-23T01:17:52.000Z</time></trkpt>
        <trkpt lat="28.7385578" lon="105.5896411"><ele>645.21</ele><time>2026-02-23T01:18:06.000Z</time></trkpt>
        <trkpt lat="28.7384746" lon="105.5897053"><ele>644.39</ele><time>2026-02-23T01:18:20.000Z</time></trkpt>
        <trkpt lat="28.7383885" lon="105.5897533"><ele>644.39</ele><time>2026-02-23T01:18:32.000Z</time></trkpt>
        <trkpt lat="28.7383039" lon="105.5898068"><ele>645</ele><time>2026-02-23T01:18:44.000Z</time></trkpt>
        <trkpt lat="28.7382395" lon="105.5898915"><ele>645.82</ele><time>2026-02-23T01:18:54.000Z</time></trkpt>
        <trkpt lat="28.7381966" lon="105.5899869"><ele>646.37</ele><time>2026-02-23T01:19:10.000Z</time></trkpt>
        <trkpt lat="28.7381256" lon="105.5900686"><ele>645.65</ele><time>2026-02-23T01:19:26.000Z</time></trkpt>
        <trkpt lat="28.7380502" lon="105.5901389"><ele>644.68</ele><time>2026-02-23T01:19:42.000Z</time></trkpt>
        <trkpt lat="28.7379889" lon="105.5902214"><ele>643.44</ele><time>2026-02-23T01:20:02.000Z</time></trkpt>
        <trkpt lat="28.7379321" lon="105.5903152"><ele>641.4</ele><time>2026-02-23T01:20:30.000Z</time></trkpt>
        <trkpt lat="28.7379039" lon="105.5904191"><ele>636.93</ele><time>2026-02-23T01:20:52.000Z</time></trkpt>
        <trkpt lat="28.7378758" lon="105.5905359"><ele>633.04</ele><time>2026-02-23T01:21:30.000Z</time></trkpt>
        <trkpt lat="28.737795" lon="105.5905033"><ele>630.14</ele><time>2026-02-23T01:22:54.000Z</time></trkpt>
        <trkpt lat="28.7376983" lon="105.5904933"><ele>628.62</ele><time>2026-02-23T01:23:08.000Z</time></trkpt>
        <trkpt lat="28.7376186" lon="105.5904297"><ele>626.93</ele><time>2026-02-23T01:23:18.000Z</time></trkpt>
        <trkpt lat="28.7375586" lon="105.5903284"><ele>625.41</ele><time>2026-02-23T01:23:32.000Z</time></trkpt>
        <trkpt lat="28.7375123" lon="105.5902299"><ele>625.36</ele><time>2026-02-23T01:23:38.000Z</time></trkpt>
        <trkpt lat="28.7374565" lon="105.5901294"><ele>625.72</ele><time>2026-02-23T01:23:50.000Z</time></trkpt>
        <trkpt lat="28.7373994" lon="105.5900434"><ele>626.7</ele><time>2026-02-23T01:23:58.000Z</time></trkpt>
        <trkpt lat="28.7373416" lon="105.5899512"><ele>627.48</ele><time>2026-02-23T01:24:06.000Z</time></trkpt>
        <trkpt lat="28.7372959" lon="105.5898715"><ele>628.26</ele><time>2026-02-23T01:24:18.000Z</time></trkpt>
        <trkpt lat="28.7373173" lon="105.5897828"><ele>629.18</ele><time>2026-02-23T01:24:50.000Z</time></trkpt>
        <trkpt lat="28.7373826" lon="105.5897065"><ele>630.78</ele><time>2026-02-23T01:25:00.000Z</time></trkpt>
        <trkpt lat="28.7374761" lon="105.5896449"><ele>631.74</ele><time>2026-02-23T01:25:12.000Z</time></trkpt>
        <trkpt lat="28.7375791" lon="105.5895819"><ele>632.71</ele><time>2026-02-23T01:25:24.000Z</time></trkpt>
        <trkpt lat="28.7376592" lon="105.5894997"><ele>633.74</ele><time>2026-02-23T01:25:32.000Z</time></trkpt>
        <trkpt lat="28.737737" lon="105.5894112"><ele>634.84</ele><time>2026-02-23T01:25:42.000Z</time></trkpt>
        <trkpt lat="28.7378213" lon="105.5893375"><ele>635.94</ele><time>2026-02-23T01:26:06.000Z</time></trkpt>
        <trkpt lat="28.7378856" lon="105.58926"><ele>637.82</ele><time>2026-02-23T01:26:41.000Z</time></trkpt>
        <trkpt lat="28.7379347" lon="105.5891668"><ele>644.39</ele><time>2026-02-23T01:26:53.000Z</time></trkpt>
        <trkpt lat="28.7379741" lon="105.5890567"><ele>644.87</ele><time>2026-02-23T01:27:09.000Z</time></trkpt>
        <trkpt lat="28.73798" lon="105.5889487"><ele>643.46</ele><time>2026-02-23T01:27:19.000Z</time></trkpt>
        <trkpt lat="28.7380038" lon="105.5888479"><ele>641.71</ele><time>2026-02-23T01:27:29.000Z</time></trkpt>
        <trkpt lat="28.7380452" lon="105.5887491"><ele>639.51</ele><time>2026-02-23T01:27:41.000Z</time></trkpt>
        <trkpt lat="28.738091" lon="105.5886535"><ele>637.66</ele><time>2026-02-23T01:27:51.000Z</time></trkpt>
        <trkpt lat="28.7381639" lon="105.5885751"><ele>635.96</ele><time>2026-02-23T01:28:03.000Z</time></trkpt>
        <trkpt lat="28.738201" lon="105.5884665"><ele>636.75</ele><time>2026-02-23T01:28:15.000Z</time></trkpt>
        <trkpt lat="28.7382482" lon="105.5883671"><ele>638.45</ele><time>2026-02-23T01:28:27.000Z</time></trkpt>
        <trkpt lat="28.738305" lon="105.5882846"><ele>640.19</ele><time>2026-02-23T01:28:41.000Z</time></trkpt>
        <trkpt lat="28.7383592" lon="105.5881946"><ele>641.53</ele><time>2026-02-23T01:28:55.000Z</time></trkpt>
        <trkpt lat="28.7384368" lon="105.5881373"><ele>642.46</ele><time>2026-02-23T01:29:09.000Z</time></trkpt>
        <trkpt lat="28.7385316" lon="105.5881007"><ele>642.91</ele><time>2026-02-23T01:29:21.000Z</time></trkpt>
        <trkpt lat="28.7386289" lon="105.5880722"><ele>643.42</ele><time>2026-02-23T01:29:33.000Z</time></trkpt>
        <trkpt lat="28.7387241" lon="105.5880359"><ele>644.23</ele><time>2026-02-23T01:29:45.000Z</time></trkpt>
        <trkpt lat="28.7388075" lon="105.5879827"><ele>645.29</ele><time>2026-02-23T01:29:55.000Z</time></trkpt>
        <trkpt lat="28.7388887" lon="105.5879228"><ele>646.59</ele><time>2026-02-23T01:30:05.000Z</time></trkpt>
        <trkpt lat="28.7389746" lon="105.58785"><ele>647.45</ele><time>2026-02-23T01:30:17.000Z</time></trkpt>
        <trkpt lat="28.7390524" lon="105.5877845"><ele>647.64</ele><time>2026-02-23T01:30:49.000Z</time></trkpt>
        <trkpt lat="28.7391298" lon="105.5877202"><ele>646.64</ele><time>2026-02-23T01:31:01.000Z</time></trkpt>
        <trkpt lat="28.7392099" lon="105.5876478"><ele>645.42</ele><time>2026-02-23T01:31:11.000Z</time></trkpt>
        <trkpt lat="28.7392711" lon="105.5875537"><ele>645.37</ele><time>2026-02-23T01:31:21.000Z</time></trkpt>
        <trkpt lat="28.7393393" lon="105.5874684"><ele>645.81</ele><time>2026-02-23T01:31:31.000Z</time></trkpt>
        <trkpt lat="28.7393922" lon="105.5873814"><ele>646.15</ele><time>2026-02-23T01:31:41.000Z</time></trkpt>
        <trkpt lat="28.7394548" lon="105.5873005"><ele>646.26</ele><time>2026-02-23T01:31:53.000Z</time></trkpt>
        <trkpt lat="28.739508" lon="105.5872069"><ele>646.19</ele><time>2026-02-23T01:32:26.000Z</time></trkpt>
        <trkpt lat="28.7395402" lon="105.5871085"><ele>648.73</ele><time>2026-02-23T01:32:30.000Z</time></trkpt>
        <trkpt lat="28.7396015" lon="105.5870189"><ele>651.85</ele><time>2026-02-23T01:32:50.000Z</time></trkpt>
        <trkpt lat="28.7396098" lon="105.5869169"><ele>655.44</ele><time>2026-02-23T01:33:02.000Z</time></trkpt>
        <trkpt lat="28.7395666" lon="105.5868089"><ele>655.81</ele><time>2026-02-23T01:33:32.000Z</time></trkpt>
        <trkpt lat="28.7395007" lon="105.5867105"><ele>659.46</ele><time>2026-02-23T01:33:42.000Z</time></trkpt>
        <trkpt lat="28.7394583" lon="105.5866051"><ele>660.81</ele><time>2026-02-23T01:33:54.000Z</time></trkpt>
        <trkpt lat="28.7394353" lon="105.5864968"><ele>660.25</ele><time>2026-02-23T01:34:04.000Z</time></trkpt>
        <trkpt lat="28.7394563" lon="105.5863829"><ele>658.46</ele><time>2026-02-23T01:34:16.000Z</time></trkpt>
        <trkpt lat="28.7394788" lon="105.5862734"><ele>656.07</ele><time>2026-02-23T01:34:30.000Z</time></trkpt>
        <trkpt lat="28.7395003" lon="105.5861685"><ele>653.42</ele><time>2026-02-23T01:34:40.000Z</time></trkpt>
        <trkpt lat="28.7395023" lon="105.5860478"><ele>651.86</ele><time>2026-02-23T01:35:00.000Z</time></trkpt>
        <trkpt lat="28.7394601" lon="105.5859498"><ele>653.17</ele><time>2026-02-23T01:35:12.000Z</time></trkpt>
        <trkpt lat="28.7393936" lon="105.5858697"><ele>655.33</ele><time>2026-02-23T01:35:24.000Z</time></trkpt>
        <trkpt lat="28.739331" lon="105.5857839"><ele>658.24</ele><time>2026-02-23T01:35:38.000Z</time></trkpt>
        <trkpt lat="28.7392464" lon="105.5857348"><ele>661.02</ele><time>2026-02-23T01:35:52.000Z</time></trkpt>
        <trkpt lat="28.7391675" lon="105.5856772"><ele>663.25</ele><time>2026-02-23T01:36:10.000Z</time></trkpt>
        <trkpt lat="28.7391151" lon="105.5855869"><ele>665.08</ele><time>2026-02-23T01:36:22.000Z</time></trkpt>
        <trkpt lat="28.7391031" lon="105.58548"><ele>666.12</ele><time>2026-02-23T01:36:34.000Z</time></trkpt>
        <trkpt lat="28.7391023" lon="105.585366"><ele>665.68</ele><time>2026-02-23T01:36:56.000Z</time></trkpt>
        <trkpt lat="28.7390991" lon="105.5852573"><ele>665.47</ele><time>2026-02-23T01:37:06.000Z</time></trkpt>
        <trkpt lat="28.7390741" lon="105.5851506"><ele>665.18</ele><time>2026-02-23T01:37:18.000Z</time></trkpt>
        <trkpt lat="28.7390063" lon="105.5850763"><ele>664.5</ele><time>2026-02-23T01:37:30.000Z</time></trkpt>
        <trkpt lat="28.7389036" lon="105.5850351"><ele>664.59</ele><time>2026-02-23T01:37:42.000Z</time></trkpt>
        <trkpt lat="28.7387983" lon="105.5850195"><ele>664.08</ele><time>2026-02-23T01:37:54.000Z</time></trkpt>
        <trkpt lat="28.7386979" lon="105.5850204"><ele>662.84</ele><time>2026-02-23T01:38:06.000Z</time></trkpt>
        <trkpt lat="28.7385886" lon="105.5850107"><ele>661.1</ele><time>2026-02-23T01:38:18.000Z</time></trkpt>
        <trkpt lat="28.7384857" lon="105.5850073"><ele>659.9</ele><time>2026-02-23T01:38:32.000Z</time></trkpt>
        <trkpt lat="28.7383822" lon="105.5850118"><ele>659.9</ele><time>2026-02-23T01:38:44.000Z</time></trkpt>
        <trkpt lat="28.7382837" lon="105.5850071"><ele>660.54</ele><time>2026-02-23T01:38:54.000Z</time></trkpt>
        <trkpt lat="28.7381795" lon="105.5849907"><ele>661.08</ele><time>2026-02-23T01:39:04.000Z</time></trkpt>
        <trkpt lat="28.7380805" lon="105.5849928"><ele>660.75</ele><time>2026-02-23T01:39:26.000Z</time></trkpt>
        <trkpt lat="28.7380138" lon="105.584922"><ele>659.61</ele><time>2026-02-23T01:40:12.000Z</time></trkpt>
        <trkpt lat="28.7380287" lon="105.5848153"><ele>656.42</ele><time>2026-02-23T01:40:28.000Z</time></trkpt>
        <trkpt lat="28.738039" lon="105.5847003"><ele>653.75</ele><time>2026-02-23T01:40:54.000Z</time></trkpt>
        <trkpt lat="28.7380109" lon="105.5845911"><ele>652.99</ele><time>2026-02-23T01:41:08.000Z</time></trkpt>
        <trkpt lat="28.7379561" lon="105.5844967"><ele>652.91</ele><time>2026-02-23T01:41:18.000Z</time></trkpt>
        <trkpt lat="28.7378897" lon="105.5844175"><ele>652.91</ele><time>2026-02-23T01:41:37.000Z</time></trkpt>
        <trkpt lat="28.7378372" lon="105.5843184"><ele>654.54</ele><time>2026-02-23T01:41:49.000Z</time></trkpt>
        <trkpt lat="28.7377801" lon="105.5842262"><ele>656.29</ele><time>2026-02-23T01:42:04.000Z</time></trkpt>
        <trkpt lat="28.7377077" lon="105.5841546"><ele>657.02</ele><time>2026-02-23T01:42:14.000Z</time></trkpt>
        <trkpt lat="28.7376412" lon="105.5840829"><ele>657.49</ele><time>2026-02-23T01:42:22.000Z</time></trkpt>
        <trkpt lat="28.7376268" lon="105.5839725"><ele>657.11</ele><time>2026-02-23T01:42:34.000Z</time></trkpt>
        <trkpt lat="28.7376466" lon="105.5838561"><ele>656.29</ele><time>2026-02-23T01:42:44.000Z</time></trkpt>
        <trkpt lat="28.7376661" lon="105.5837468"><ele>654.7</ele><time>2026-02-23T01:42:54.000Z</time></trkpt>
        <trkpt lat="28.7376409" lon="105.5836351"><ele>653.07</ele><time>2026-02-23T01:43:04.000Z</time></trkpt>
        <trkpt lat="28.7375925" lon="105.5835303"><ele>652</ele><time>2026-02-23T01:43:16.000Z</time></trkpt>
        <trkpt lat="28.7375523" lon="105.5834233"><ele>651.79</ele><time>2026-02-23T01:43:28.000Z</time></trkpt>
        <trkpt lat="28.7375209" lon="105.5833228"><ele>651.88</ele><time>2026-02-23T01:43:40.000Z</time></trkpt>
        <trkpt lat="28.7374833" lon="105.5832172"><ele>652.45</ele><time>2026-02-23T01:43:52.000Z</time></trkpt>
        <trkpt lat="28.7374283" lon="105.5831244"><ele>653.37</ele><time>2026-02-23T01:44:06.000Z</time></trkpt>
        <trkpt lat="28.7373709" lon="105.5830351"><ele>655.02</ele><time>2026-02-23T01:44:28.000Z</time></trkpt>
        <trkpt lat="28.7373452" lon="105.5829364"><ele>657.85</ele><time>2026-02-23T01:44:38.000Z</time></trkpt>
        <trkpt lat="28.7373629" lon="105.5828287"><ele>659.38</ele><time>2026-02-23T01:44:50.000Z</time></trkpt>
        <trkpt lat="28.7373076" lon="105.5828883"><ele>659.77</ele><time>2026-02-23T01:45:09.000Z</time></trkpt>
        <trkpt lat="28.7373088" lon="105.5828443"><ele>674.37</ele><time>2026-02-23T01:45:30.000Z</time></trkpt>
        <trkpt lat="28.7373444" lon="105.5827624"><ele>675.89</ele><time>2026-02-23T01:45:44.000Z</time></trkpt>
        <trkpt lat="28.7373906" lon="105.5826563"><ele>675.25</ele><time>2026-02-23T01:45:56.000Z</time></trkpt>
        <trkpt lat="28.7374755" lon="105.5825891"><ele>672.9</ele><time>2026-02-23T01:46:08.000Z</time></trkpt>
        <trkpt lat="28.7375536" lon="105.5825113"><ele>670.36</ele><time>2026-02-23T01:46:20.000Z</time></trkpt>
        <trkpt lat="28.7376284" lon="105.5824301"><ele>667.93</ele><time>2026-02-23T01:46:32.000Z</time></trkpt>
        <trkpt lat="28.7376269" lon="105.5823204"><ele>665.16</ele><time>2026-02-23T01:46:42.000Z</time></trkpt>
        <trkpt lat="28.7375719" lon="105.5822106"><ele>662.64</ele><time>2026-02-23T01:46:52.000Z</time></trkpt>
        <trkpt lat="28.7375175" lon="105.5821024"><ele>661.25</ele><time>2026-02-23T01:47:10.000Z</time></trkpt>
        <trkpt lat="28.7374721" lon="105.5819933"><ele>660.54</ele><time>2026-02-23T01:47:24.000Z</time></trkpt>
        <trkpt lat="28.7374489" lon="105.5818842"><ele>661.73</ele><time>2026-02-23T01:47:34.000Z</time></trkpt>
        <trkpt lat="28.7374271" lon="105.5817678"><ele>663.48</ele><time>2026-02-23T01:47:44.000Z</time></trkpt>
        <trkpt lat="28.7373852" lon="105.5816578"><ele>664.99</ele><time>2026-02-23T01:47:54.000Z</time></trkpt>
        <trkpt lat="28.7372978" lon="105.581593"><ele>666.42</ele><time>2026-02-23T01:48:08.000Z</time></trkpt>
        <trkpt lat="28.7371959" lon="105.5815798"><ele>666.71</ele><time>2026-02-23T01:48:18.000Z</time></trkpt>
        <trkpt lat="28.7370942" lon="105.5815629"><ele>666.66</ele><time>2026-02-23T01:48:30.000Z</time></trkpt>
        <trkpt lat="28.7370124" lon="105.5815116"><ele>666.85</ele><time>2026-02-23T01:48:42.000Z</time></trkpt>
        <trkpt lat="28.7369729" lon="105.5814195"><ele>666.96</ele><time>2026-02-23T01:48:54.000Z</time></trkpt>
        <trkpt lat="28.736941" lon="105.5813195"><ele>666.93</ele><time>2026-02-23T01:49:08.000Z</time></trkpt>
        <trkpt lat="28.7369318" lon="105.5812106"><ele>665.93</ele><time>2026-02-23T01:49:24.000Z</time></trkpt>
        <trkpt lat="28.7369192" lon="105.5811039"><ele>666</ele><time>2026-02-23T01:49:34.000Z</time></trkpt>
        <trkpt lat="28.7369456" lon="105.5809921"><ele>665.7</ele><time>2026-02-23T01:49:46.000Z</time></trkpt>
        <trkpt lat="28.7369979" lon="105.5808979"><ele>663.94</ele><time>2026-02-23T01:49:56.000Z</time></trkpt>
        <trkpt lat="28.7370395" lon="105.5808032"><ele>662.2</ele><time>2026-02-23T01:50:06.000Z</time></trkpt>
        <trkpt lat="28.737063" lon="105.5806963"><ele>660.65</ele><time>2026-02-23T01:50:16.000Z</time></trkpt>
        <trkpt lat="28.7370365" lon="105.5805986"><ele>659.55</ele><time>2026-02-23T01:50:30.000Z</time></trkpt>
        <trkpt lat="28.737011" lon="105.5804909"><ele>659.14</ele><time>2026-02-23T01:50:40.000Z</time></trkpt>
        <trkpt lat="28.7370176" lon="105.5803868"><ele>658.39</ele><time>2026-02-23T01:50:50.000Z</time></trkpt>
        <trkpt lat="28.7370526" lon="105.5802757"><ele>657.97</ele><time>2026-02-23T01:51:00.000Z</time></trkpt>
        <trkpt lat="28.7370932" lon="105.5801671"><ele>657.51</ele><time>2026-02-23T01:51:10.000Z</time></trkpt>
        <trkpt lat="28.7371213" lon="105.5800548"><ele>657.16</ele><time>2026-02-23T01:51:20.000Z</time></trkpt>
        <trkpt lat="28.7371209" lon="105.5799437"><ele>657.44</ele><time>2026-02-23T01:51:28.000Z</time></trkpt>
        <trkpt lat="28.7370913" lon="105.5798321"><ele>657.89</ele><time>2026-02-23T01:51:38.000Z</time></trkpt>
        <trkpt lat="28.7370387" lon="105.5797403"><ele>658.93</ele><time>2026-02-23T01:51:48.000Z</time></trkpt>
        <trkpt lat="28.7370001" lon="105.5796421"><ele>659.95</ele><time>2026-02-23T01:52:14.000Z</time></trkpt>
        <trkpt lat="28.7369593" lon="105.579543"><ele>659.2</ele><time>2026-02-23T01:52:26.000Z</time></trkpt>
        <trkpt lat="28.7369307" lon="105.5794433"><ele>658.72</ele><time>2026-02-23T01:52:36.000Z</time></trkpt>
        <trkpt lat="28.7369057" lon="105.5793409"><ele>659.06</ele><time>2026-02-23T01:52:58.000Z</time></trkpt>
        <trkpt lat="28.7369117" lon="105.5792312"><ele>659.98</ele><time>2026-02-23T01:53:10.000Z</time></trkpt>
        <trkpt lat="28.7369123" lon="105.5791215"><ele>659.6</ele><time>2026-02-23T01:53:22.000Z</time></trkpt>
        <trkpt lat="28.7369365" lon="105.5790148"><ele>658.65</ele><time>2026-02-23T01:53:34.000Z</time></trkpt>
        <trkpt lat="28.7369223" lon="105.5788982"><ele>657.77</ele><time>2026-02-23T01:53:46.000Z</time></trkpt>
        <trkpt lat="28.7368549" lon="105.578808"><ele>658</ele><time>2026-02-23T01:53:56.000Z</time></trkpt>
        <trkpt lat="28.7367766" lon="105.5787404"><ele>659.29</ele><time>2026-02-23T01:54:04.000Z</time></trkpt>
        <trkpt lat="28.7366968" lon="105.578665"><ele>660.63</ele><time>2026-02-23T01:54:14.000Z</time></trkpt>
        <trkpt lat="28.7366352" lon="105.578576"><ele>661.78</ele><time>2026-02-23T01:54:24.000Z</time></trkpt>
        <trkpt lat="28.7366366" lon="105.5784703"><ele>663.08</ele><time>2026-02-23T01:54:44.000Z</time></trkpt>
        <trkpt lat="28.7366434" lon="105.5783514"><ele>663.78</ele><time>2026-02-23T01:54:54.000Z</time></trkpt>
        <trkpt lat="28.7366836" lon="105.5782514"><ele>662.19</ele><time>2026-02-23T01:55:04.000Z</time></trkpt>
        <trkpt lat="28.736715" lon="105.5781383"><ele>660.35</ele><time>2026-02-23T01:55:14.000Z</time></trkpt>
        <trkpt lat="28.7367452" lon="105.5780289"><ele>658.82</ele><time>2026-02-23T01:55:24.000Z</time></trkpt>
        <trkpt lat="28.7367488" lon="105.5779138"><ele>657.05</ele><time>2026-02-23T01:55:38.000Z</time></trkpt>
        <trkpt lat="28.7367509" lon="105.5777955"><ele>656</ele><time>2026-02-23T01:55:48.000Z</time></trkpt>
        <trkpt lat="28.7367174" lon="105.5776952"><ele>655.35</ele><time>2026-02-23T01:55:58.000Z</time></trkpt>
        <trkpt lat="28.7367079" lon="105.5775931"><ele>654.94</ele><time>2026-02-23T01:56:08.000Z</time></trkpt>
        <trkpt lat="28.7366844" lon="105.5774794"><ele>654.58</ele><time>2026-02-23T01:56:20.000Z</time></trkpt>
        <trkpt lat="28.736672" lon="105.5773638"><ele>655.28</ele><time>2026-02-23T01:56:32.000Z</time></trkpt>
        <trkpt lat="28.7366731" lon="105.5772441"><ele>656.71</ele><time>2026-02-23T01:56:44.000Z</time></trkpt>
        <trkpt lat="28.7366928" lon="105.5771384"><ele>657.69</ele><time>2026-02-23T01:57:13.000Z</time></trkpt>
        <trkpt lat="28.7367709" lon="105.5770644"><ele>659.8</ele><time>2026-02-23T01:57:23.000Z</time></trkpt>
        <trkpt lat="28.7368402" lon="105.576989"><ele>660.36</ele><time>2026-02-23T01:57:33.000Z</time></trkpt>
        <trkpt lat="28.7368634" lon="105.5768934"><ele>659.69</ele><time>2026-02-23T01:57:43.000Z</time></trkpt>
        <trkpt lat="28.7368506" lon="105.5767783"><ele>658.79</ele><time>2026-02-23T01:57:55.000Z</time></trkpt>
        <trkpt lat="28.736835" lon="105.5766666"><ele>658.06</ele><time>2026-02-23T01:58:05.000Z</time></trkpt>
        <trkpt lat="28.7368064" lon="105.5765575"><ele>657.13</ele><time>2026-02-23T01:58:15.000Z</time></trkpt>
        <trkpt lat="28.7368058" lon="105.5764399"><ele>655.91</ele><time>2026-02-23T01:58:25.000Z</time></trkpt>
        <trkpt lat="28.7368347" lon="105.5763231"><ele>654.49</ele><time>2026-02-23T01:58:37.000Z</time></trkpt>
        <trkpt lat="28.7368812" lon="105.5762122"><ele>654.45</ele><time>2026-02-23T01:58:49.000Z</time></trkpt>
        <trkpt lat="28.7369421" lon="105.5761199"><ele>653.53</ele><time>2026-02-23T01:58:59.000Z</time></trkpt>
        <trkpt lat="28.7369963" lon="105.5760279"><ele>653.3</ele><time>2026-02-23T01:59:09.000Z</time></trkpt>
        <trkpt lat="28.7370223" lon="105.5759237"><ele>653.82</ele><time>2026-02-23T01:59:19.000Z</time></trkpt>
        <trkpt lat="28.7370212" lon="105.5758094"><ele>654.8</ele><time>2026-02-23T01:59:29.000Z</time></trkpt>
        <trkpt lat="28.7370615" lon="105.5757143"><ele>655.32</ele><time>2026-02-23T01:59:41.000Z</time></trkpt>
        <trkpt lat="28.7371065" lon="105.575622"><ele>655.74</ele><time>2026-02-23T01:59:53.000Z</time></trkpt>
        <trkpt lat="28.7371383" lon="105.5755224"><ele>655.85</ele><time>2026-02-23T02:00:14.000Z</time></trkpt>
        <trkpt lat="28.7371656" lon="105.5754148"><ele>656.78</ele><time>2026-02-23T02:00:28.000Z</time></trkpt>
        <trkpt lat="28.7371892" lon="105.5753055"><ele>658.08</ele><time>2026-02-23T02:00:43.000Z</time></trkpt>
        <trkpt lat="28.7372004" lon="105.5751937"><ele>659.03</ele><time>2026-02-23T02:00:53.000Z</time></trkpt>
        <trkpt lat="28.7371913" lon="105.575085"><ele>659.06</ele><time>2026-02-23T02:01:03.000Z</time></trkpt>
        <trkpt lat="28.7371794" lon="105.5749628"><ele>658.73</ele><time>2026-02-23T02:01:13.000Z</time></trkpt>
        <trkpt lat="28.7372018" lon="105.5748444"><ele>658.16</ele><time>2026-02-23T02:01:25.000Z</time></trkpt>
        <trkpt lat="28.7372228" lon="105.5747345"><ele>657.32</ele><time>2026-02-23T02:01:35.000Z</time></trkpt>
        <trkpt lat="28.7372344" lon="105.5746228"><ele>656.75</ele><time>2026-02-23T02:01:45.000Z</time></trkpt>
        <trkpt lat="28.7372444" lon="105.5745163"><ele>656.81</ele><time>2026-02-23T02:01:57.000Z</time></trkpt>
        <trkpt lat="28.7372616" lon="105.5744091"><ele>657.15</ele><time>2026-02-23T02:02:07.000Z</time></trkpt>
        <trkpt lat="28.7373003" lon="105.5743089"><ele>657.22</ele><time>2026-02-23T02:02:17.000Z</time></trkpt>
        <trkpt lat="28.7373716" lon="105.5742224"><ele>657.6</ele><time>2026-02-23T02:02:29.000Z</time></trkpt>
        <trkpt lat="28.7374485" lon="105.5741528"><ele>658.54</ele><time>2026-02-23T02:02:43.000Z</time></trkpt>
        <trkpt lat="28.7375349" lon="105.5740898"><ele>659</ele><time>2026-02-23T02:02:55.000Z</time></trkpt>
        <trkpt lat="28.7376258" lon="105.5740353"><ele>659.21</ele><time>2026-02-23T02:03:07.000Z</time></trkpt>
        <trkpt lat="28.7377181" lon="105.5740014"><ele>659.04</ele><time>2026-02-23T02:03:17.000Z</time></trkpt>
        <trkpt lat="28.7378137" lon="105.5739954"><ele>658.59</ele><time>2026-02-23T02:03:27.000Z</time></trkpt>
        <trkpt lat="28.7379049" lon="105.573984"><ele>657.3</ele><time>2026-02-23T02:03:39.000Z</time></trkpt>
        <trkpt lat="28.737994" lon="105.5739432"><ele>655.45</ele><time>2026-02-23T02:03:49.000Z</time></trkpt>
        <trkpt lat="28.7380685" lon="105.5738782"><ele>653.67</ele><time>2026-02-23T02:03:59.000Z</time></trkpt>
        <trkpt lat="28.7380489" lon="105.5737653"><ele>651.75</ele><time>2026-02-23T02:04:15.000Z</time></trkpt>
        <trkpt lat="28.7380796" lon="105.5736669"><ele>667.17</ele><time>2026-02-23T02:04:33.000Z</time></trkpt>
        <trkpt lat="28.7381494" lon="105.5735986"><ele>675.44</ele><time>2026-02-23T02:04:45.000Z</time></trkpt>
        <trkpt lat="28.7382237" lon="105.5735301"><ele>675.25</ele><time>2026-02-23T02:04:55.000Z</time></trkpt>
        <trkpt lat="28.7383038" lon="105.5734716"><ele>670.84</ele><time>2026-02-23T02:05:05.000Z</time></trkpt>
        <trkpt lat="28.7384073" lon="105.5734338"><ele>664.59</ele><time>2026-02-23T02:05:29.000Z</time></trkpt>
        <trkpt lat="28.7385096" lon="105.5734591"><ele>660.51</ele><time>2026-02-23T02:05:43.000Z</time></trkpt>
        <trkpt lat="28.7386045" lon="105.5735283"><ele>658.78</ele><time>2026-02-23T02:05:53.000Z</time></trkpt>
        <trkpt lat="28.7386934" lon="105.5735844"><ele>657.24</ele><time>2026-02-23T02:06:01.000Z</time></trkpt>
        <trkpt lat="28.7387888" lon="105.5736371"><ele>655.16</ele><time>2026-02-23T02:06:11.000Z</time></trkpt>
        <trkpt lat="28.7388868" lon="105.5736506"><ele>653.58</ele><time>2026-02-23T02:06:19.000Z</time></trkpt>
        <trkpt lat="28.7389668" lon="105.5735851"><ele>652.95</ele><time>2026-02-23T02:06:29.000Z</time></trkpt>
        <trkpt lat="28.7389962" lon="105.5734624"><ele>652.63</ele><time>2026-02-23T02:06:39.000Z</time></trkpt>
        <trkpt lat="28.7389941" lon="105.5733229"><ele>651.93</ele><time>2026-02-23T02:06:49.000Z</time></trkpt>
        <trkpt lat="28.73901" lon="105.5731981"><ele>650.71</ele><time>2026-02-23T02:06:59.000Z</time></trkpt>
        <trkpt lat="28.7390723" lon="105.5731279"><ele>648.9</ele><time>2026-02-23T02:07:10.000Z</time></trkpt>
        <trkpt lat="28.7391486" lon="105.5730552"><ele>648.13</ele><time>2026-02-23T02:07:25.000Z</time></trkpt>
        <trkpt lat="28.7392367" lon="105.5729931"><ele>647.25</ele><time>2026-02-23T02:07:33.000Z</time></trkpt>
        <trkpt lat="28.739326" lon="105.5729425"><ele>657.77</ele><time>2026-02-23T02:07:43.000Z</time></trkpt>
        <trkpt lat="28.7394228" lon="105.5729163"><ele>657.61</ele><time>2026-02-23T02:07:53.000Z</time></trkpt>
        <trkpt lat="28.739519" lon="105.5728927"><ele>654.29</ele><time>2026-02-23T02:08:03.000Z</time></trkpt>
        <trkpt lat="28.7396177" lon="105.5728481"><ele>650.77</ele><time>2026-02-23T02:08:13.000Z</time></trkpt>
        <trkpt lat="28.7396982" lon="105.5727908"><ele>647.47</ele><time>2026-02-23T02:08:21.000Z</time></trkpt>
        <trkpt lat="28.7397615" lon="105.5727019"><ele>644.64</ele><time>2026-02-23T02:08:31.000Z</time></trkpt>
        <trkpt lat="28.739827" lon="105.5726149"><ele>642.47</ele><time>2026-02-23T02:08:43.000Z</time></trkpt>
        <trkpt lat="28.7398983" lon="105.5725246"><ele>640.64</ele><time>2026-02-23T02:08:57.000Z</time></trkpt>
        <trkpt lat="28.7399762" lon="105.5724467"><ele>639.2</ele><time>2026-02-23T02:09:11.000Z</time></trkpt>
        <trkpt lat="28.7400314" lon="105.5723527"><ele>638.86</ele><time>2026-02-23T02:09:23.000Z</time></trkpt>
        <trkpt lat="28.7400616" lon="105.5722514"><ele>639.91</ele><time>2026-02-23T02:09:35.000Z</time></trkpt>
        <trkpt lat="28.7400801" lon="105.5721494"><ele>641.5</ele><time>2026-02-23T02:09:45.000Z</time></trkpt>
        <trkpt lat="28.7401049" lon="105.5720492"><ele>643.05</ele><time>2026-02-23T02:10:01.000Z</time></trkpt>
        <trkpt lat="28.7401287" lon="105.5719426"><ele>645.09</ele><time>2026-02-23T02:10:23.000Z</time></trkpt>
        <trkpt lat="28.7401765" lon="105.5718438"><ele>648.28</ele><time>2026-02-23T02:10:43.000Z</time></trkpt>
        <trkpt lat="28.7402434" lon="105.5717583"><ele>650.48</ele><time>2026-02-23T02:10:55.000Z</time></trkpt>
        <trkpt lat="28.7403324" lon="105.5717"><ele>652.17</ele><time>2026-02-23T02:11:09.000Z</time></trkpt>
        <trkpt lat="28.7404128" lon="105.5716395"><ele>653.51</ele><time>2026-02-23T02:11:17.000Z</time></trkpt>
        <trkpt lat="28.7404843" lon="105.5715726"><ele>654.67</ele><time>2026-02-23T02:11:37.000Z</time></trkpt>
        <trkpt lat="28.7405217" lon="105.5714723"><ele>656.1</ele><time>2026-02-23T02:11:49.000Z</time></trkpt>
        <trkpt lat="28.740552" lon="105.5713647"><ele>657.91</ele><time>2026-02-23T02:12:21.000Z</time></trkpt>
        <trkpt lat="28.740594" lon="105.5712612"><ele>658.81</ele><time>2026-02-23T02:12:39.000Z</time></trkpt>
        <trkpt lat="28.740633" lon="105.5711631"><ele>659.45</ele><time>2026-02-23T02:12:49.000Z</time></trkpt>
        <trkpt lat="28.7406673" lon="105.5710599"><ele>659.51</ele><time>2026-02-23T02:12:59.000Z</time></trkpt>
        <trkpt lat="28.7407076" lon="105.5709811"><ele>658.95</ele><time>2026-02-23T02:13:15.000Z</time></trkpt>
        <trkpt lat="28.7407391" lon="105.5708877"><ele>659.19</ele><time>2026-02-23T02:13:35.000Z</time></trkpt>
        <trkpt lat="28.7407724" lon="105.5707914"><ele>660.91</ele><time>2026-02-23T02:13:49.000Z</time></trkpt>
        <trkpt lat="28.7408305" lon="105.5707132"><ele>663.06</ele><time>2026-02-23T02:14:15.000Z</time></trkpt>
        <trkpt lat="28.7409028" lon="105.5706467"><ele>664.37</ele><time>2026-02-23T02:14:33.000Z</time></trkpt>
        <trkpt lat="28.7409828" lon="105.5705837"><ele>665.89</ele><time>2026-02-23T02:14:49.000Z</time></trkpt>
        <trkpt lat="28.7410578" lon="105.5705158"><ele>666.67</ele><time>2026-02-23T02:15:01.000Z</time></trkpt>
        <trkpt lat="28.7411311" lon="105.5704504"><ele>667.67</ele><time>2026-02-23T02:15:13.000Z</time></trkpt>
        <trkpt lat="28.7412096" lon="105.5703807"><ele>668.89</ele><time>2026-02-23T02:15:27.000Z</time></trkpt>
        <trkpt lat="28.7412912" lon="105.5703118"><ele>670.1</ele><time>2026-02-23T02:15:39.000Z</time></trkpt>
        <trkpt lat="28.7413586" lon="105.570227"><ele>671.04</ele><time>2026-02-23T02:15:55.000Z</time></trkpt>
        <trkpt lat="28.7414066" lon="105.5701276"><ele>671.37</ele><time>2026-02-23T02:16:19.000Z</time></trkpt>
        <trkpt lat="28.7413793" lon="105.5700301"><ele>672.72</ele><time>2026-02-23T02:16:27.000Z</time></trkpt>
        <trkpt lat="28.7413234" lon="105.5699345"><ele>673.74</ele><time>2026-02-23T02:16:35.000Z</time></trkpt>
        <trkpt lat="28.7412468" lon="105.5698352"><ele>674.28</ele><time>2026-02-23T02:16:45.000Z</time></trkpt>
        <trkpt lat="28.7411718" lon="105.5697422"><ele>673.9</ele><time>2026-02-23T02:16:57.000Z</time></trkpt>
        <trkpt lat="28.7411296" lon="105.5696381"><ele>673.26</ele><time>2026-02-23T02:17:07.000Z</time></trkpt>
        <trkpt lat="28.7411047" lon="105.5695247"><ele>672.33</ele><time>2026-02-23T02:17:19.000Z</time></trkpt>
        <trkpt lat="28.7410577" lon="105.5694247"><ele>671.63</ele><time>2026-02-23T02:17:31.000Z</time></trkpt>
        <trkpt lat="28.7409875" lon="105.5693329"><ele>670.88</ele><time>2026-02-23T02:17:41.000Z</time></trkpt>
        <trkpt lat="28.740953" lon="105.5692288"><ele>670.42</ele><time>2026-02-23T02:17:51.000Z</time></trkpt>
        <trkpt lat="28.7409594" lon="105.569122"><ele>670.15</ele><time>2026-02-23T02:18:03.000Z</time></trkpt>
        <trkpt lat="28.7410109" lon="105.5690146"><ele>669.53</ele><time>2026-02-23T02:18:27.000Z</time></trkpt>
        <trkpt lat="28.7410823" lon="105.5689236"><ele>671.97</ele><time>2026-02-23T02:18:37.000Z</time></trkpt>
        <trkpt lat="28.741162" lon="105.5688338"><ele>672.58</ele><time>2026-02-23T02:18:47.000Z</time></trkpt>
        <trkpt lat="28.7412277" lon="105.5687498"><ele>672.25</ele><time>2026-02-23T02:18:55.000Z</time></trkpt>
        <trkpt lat="28.7412862" lon="105.5686676"><ele>671.97</ele><time>2026-02-23T02:19:03.000Z</time></trkpt>
        <trkpt lat="28.7413366" lon="105.5685729"><ele>671.42</ele><time>2026-02-23T02:19:13.000Z</time></trkpt>
        <trkpt lat="28.741368" lon="105.5684707"><ele>670.34</ele><time>2026-02-23T02:19:21.000Z</time></trkpt>
        <trkpt lat="28.7413567" lon="105.5683587"><ele>669.46</ele><time>2026-02-23T02:19:31.000Z</time></trkpt>
        <trkpt lat="28.7413675" lon="105.568235"><ele>669.43</ele><time>2026-02-23T02:19:41.000Z</time></trkpt>
        <trkpt lat="28.7414169" lon="105.5681381"><ele>669.55</ele><time>2026-02-23T02:19:51.000Z</time></trkpt>
        <trkpt lat="28.7414958" lon="105.5680707"><ele>669.61</ele><time>2026-02-23T02:20:03.000Z</time></trkpt>
        <trkpt lat="28.7415999" lon="105.5680371"><ele>669.61</ele><time>2026-02-23T02:20:15.000Z</time></trkpt>
        <trkpt lat="28.7416906" lon="105.5679775"><ele>670.08</ele><time>2026-02-23T02:20:29.000Z</time></trkpt>
        <trkpt lat="28.7416846" lon="105.567879"><ele>670.04</ele><time>2026-02-23T02:20:39.000Z</time></trkpt>
        <trkpt lat="28.7416201" lon="105.5678001"><ele>670.37</ele><time>2026-02-23T02:20:47.000Z</time></trkpt>
        <trkpt lat="28.7415303" lon="105.5677329"><ele>670.47</ele><time>2026-02-23T02:20:55.000Z</time></trkpt>
        <trkpt lat="28.7414309" lon="105.5676574"><ele>670.09</ele><time>2026-02-23T02:21:05.000Z</time></trkpt>
        <trkpt lat="28.7413336" lon="105.567597"><ele>669.54</ele><time>2026-02-23T02:21:15.000Z</time></trkpt>
        <trkpt lat="28.7412375" lon="105.5675398"><ele>668.75</ele><time>2026-02-23T02:21:25.000Z</time></trkpt>
        <trkpt lat="28.7411445" lon="105.5674893"><ele>667.57</ele><time>2026-02-23T02:21:33.000Z</time></trkpt>
        <trkpt lat="28.7410584" lon="105.5674393"><ele>666.2</ele><time>2026-02-23T02:21:43.000Z</time></trkpt>
        <trkpt lat="28.7409712" lon="105.5673839"><ele>664.31</ele><time>2026-02-23T02:21:51.000Z</time></trkpt>
        <trkpt lat="28.741006" lon="105.5673123"><ele>662.84</ele><time>2026-02-23T02:22:05.000Z</time></trkpt>
        <trkpt lat="28.741034" lon="105.5672149"><ele>660.97</ele><time>2026-02-23T02:22:13.000Z</time></trkpt>
        <trkpt lat="28.7410791" lon="105.5671152"><ele>658.71</ele><time>2026-02-23T02:22:23.000Z</time></trkpt>
        <trkpt lat="28.741141" lon="105.5670216"><ele>656.08</ele><time>2026-02-23T02:22:33.000Z</time></trkpt>
        <trkpt lat="28.7410987" lon="105.5669489"><ele>653.29</ele><time>2026-02-23T02:22:49.000Z</time></trkpt>
        <trkpt lat="28.7410248" lon="105.5668704"><ele>651.75</ele><time>2026-02-23T02:22:57.000Z</time></trkpt>
        <trkpt lat="28.7409326" lon="105.5668726"><ele>651.04</ele><time>2026-02-23T02:23:17.000Z</time></trkpt>
        <trkpt lat="28.7409326" lon="105.5668726"><ele>651.04</ele><time>2026-02-23T02:23:21.000Z</time></trkpt>
      </trkseg>
  </trk>
</gpx>